<?xml version="1.0" encoding="utf-8"?>
<gpx xmlns:tc2="http://www.garmin.com/xmlschemas/TrainingCenterDatabase/v2" xmlns:xsi="http://www.w3.org/2001/XMLSchema-instance" xmlns:tp1="http://www.garmin.com/xmlschemas/TrackPointExtension/v1" xmlns="http://www.topografix.com/GPX/1/1" version="1.1" creator="TC2 to GPX11 XSLT stylesheet" xsi:schemaLocation="http://www.topografix.com/GPX/1/1 http://www.topografix.com/GPX/1/1/gpx.xsd http://www.garmin.com/xmlschemas/TrackPointExtension/v1 http://www.garmin.com/xmlschemas/TrackPointExtensionv1.xsd">
<trk>
<name>2012-04-06T11:43:44Z</name>
<trkseg>
<trkpt lat="50.2263486" lon="11.0156955">
<ele>292.8587646</ele>
<time>2012-04-06T11:43:44Z</time>
</trkpt>
<trkpt lat="50.2263556" lon="11.0156815">
<ele>293.3393555</ele>
<time>2012-04-06T11:43:45Z</time>
</trkpt>
<trkpt lat="50.2263683" lon="11.0154971">
<ele>299.5880127</ele>
<time>2012-04-06T11:43:49Z</time>
</trkpt>
<trkpt lat="50.2262603" lon="11.0152122">
<ele>296.7041016</ele>
<time>2012-04-06T11:43:54Z</time>
</trkpt>
<trkpt lat="50.2261542" lon="11.0149487">
<ele>297.1846924</ele>
<time>2012-04-06T11:43:59Z</time>
</trkpt>
<trkpt lat="50.2260203" lon="11.0146855">
<ele>296.7041016</ele>
<time>2012-04-06T11:44:05Z</time>
</trkpt>
<trkpt lat="50.2258973" lon="11.0144967">
<ele>295.2619629</ele>
<time>2012-04-06T11:44:10Z</time>
</trkpt>
<trkpt lat="50.2257881" lon="11.0143454">
<ele>296.2235107</ele>
<time>2012-04-06T11:44:14Z</time>
</trkpt>
<trkpt lat="50.2256730" lon="11.0144467">
<ele>295.7426758</ele>
<time>2012-04-06T11:44:19Z</time>
</trkpt>
<trkpt lat="50.2255579" lon="11.0145828">
<ele>294.3007813</ele>
<time>2012-04-06T11:44:23Z</time>
</trkpt>
<trkpt lat="50.2254225" lon="11.0147221">
<ele>294.7813721</ele>
<time>2012-04-06T11:44:28Z</time>
</trkpt>
<trkpt lat="50.2254056" lon="11.0147311">
<ele>294.3007813</ele>
<time>2012-04-06T11:44:29Z</time>
</trkpt>
<trkpt lat="50.2252965" lon="11.0145963">
<ele>293.8200684</ele>
<time>2012-04-06T11:44:33Z</time>
</trkpt>
<trkpt lat="50.2251732" lon="11.0144741">
<ele>294.7813721</ele>
<time>2012-04-06T11:44:37Z</time>
</trkpt>
<trkpt lat="50.2251379" lon="11.0144602">
<ele>294.7813721</ele>
<time>2012-04-06T11:44:38Z</time>
</trkpt>
<trkpt lat="50.2249851" lon="11.0145688">
<ele>296.7041016</ele>
<time>2012-04-06T11:44:43Z</time>
</trkpt>
<trkpt lat="50.2249064" lon="11.0146557">
<ele>297.6654053</ele>
<time>2012-04-06T11:44:47Z</time>
</trkpt>
<trkpt lat="50.2248550" lon="11.0148282">
<ele>297.1846924</ele>
<time>2012-04-06T11:44:51Z</time>
</trkpt>
<trkpt lat="50.2248089" lon="11.0150568">
<ele>299.5880127</ele>
<time>2012-04-06T11:44:54Z</time>
</trkpt>
<trkpt lat="50.2248229" lon="11.0153133">
<ele>302.4719238</ele>
<time>2012-04-06T11:44:59Z</time>
</trkpt>
<trkpt lat="50.2248757" lon="11.0153858">
<ele>302.9525146</ele>
<time>2012-04-06T11:45:02Z</time>
</trkpt>
<trkpt lat="50.2249363" lon="11.0155193">
<ele>305.8366699</ele>
<time>2012-04-06T11:45:07Z</time>
</trkpt>
<trkpt lat="50.2249281" lon="11.0157195">
<ele>305.3559570</ele>
<time>2012-04-06T11:45:12Z</time>
</trkpt>
<trkpt lat="50.2248634" lon="11.0157708">
<ele>304.3946533</ele>
<time>2012-04-06T11:45:15Z</time>
</trkpt>
<trkpt lat="50.2246890" lon="11.0158348">
<ele>301.9913330</ele>
<time>2012-04-06T11:45:21Z</time>
</trkpt>
<trkpt lat="50.2246079" lon="11.0159015">
<ele>301.5106201</ele>
<time>2012-04-06T11:45:25Z</time>
</trkpt>
<trkpt lat="50.2244804" lon="11.0158202">
<ele>302.9525146</ele>
<time>2012-04-06T11:45:32Z</time>
</trkpt>
<trkpt lat="50.2243547" lon="11.0155970">
<ele>302.9525146</ele>
<time>2012-04-06T11:45:39Z</time>
</trkpt>
<trkpt lat="50.2243200" lon="11.0155332">
<ele>303.4332275</ele>
<time>2012-04-06T11:45:41Z</time>
</trkpt>
<trkpt lat="50.2242340" lon="11.0153774">
<ele>301.9913330</ele>
<time>2012-04-06T11:45:46Z</time>
</trkpt>
<trkpt lat="50.2241206" lon="11.0152405">
<ele>302.9525146</ele>
<time>2012-04-06T11:45:51Z</time>
</trkpt>
<trkpt lat="50.2240928" lon="11.0152279">
<ele>302.9525146</ele>
<time>2012-04-06T11:45:52Z</time>
</trkpt>
<trkpt lat="50.2239632" lon="11.0153619">
<ele>303.9139404</ele>
<time>2012-04-06T11:45:57Z</time>
</trkpt>
<trkpt lat="50.2239196" lon="11.0155303">
<ele>304.3946533</ele>
<time>2012-04-06T11:46:01Z</time>
</trkpt>
<trkpt lat="50.2239076" lon="11.0155552">
<ele>304.8752441</ele>
<time>2012-04-06T11:46:02Z</time>
</trkpt>
<trkpt lat="50.2238321" lon="11.0158504">
<ele>296.7041016</ele>
<time>2012-04-06T11:46:08Z</time>
</trkpt>
<trkpt lat="50.2238277" lon="11.0158846">
<ele>296.7041016</ele>
<time>2012-04-06T11:46:09Z</time>
</trkpt>
<trkpt lat="50.2237978" lon="11.0160344">
<ele>297.1846924</ele>
<time>2012-04-06T11:46:13Z</time>
</trkpt>
<trkpt lat="50.2237483" lon="11.0161814">
<ele>297.6654053</ele>
<time>2012-04-06T11:46:17Z</time>
</trkpt>
<trkpt lat="50.2236684" lon="11.0163746">
<ele>298.1461182</ele>
<time>2012-04-06T11:46:21Z</time>
</trkpt>
<trkpt lat="50.2236667" lon="11.0167010">
<ele>299.5880127</ele>
<time>2012-04-06T11:46:28Z</time>
</trkpt>
<trkpt lat="50.2236865" lon="11.0169044">
<ele>300.0687256</ele>
<time>2012-04-06T11:46:33Z</time>
</trkpt>
<trkpt lat="50.2236348" lon="11.0170504">
<ele>298.1461182</ele>
<time>2012-04-06T11:46:38Z</time>
</trkpt>
<trkpt lat="50.2235599" lon="11.0170470">
<ele>296.7041016</ele>
<time>2012-04-06T11:46:41Z</time>
</trkpt>
<trkpt lat="50.2234519" lon="11.0170521">
<ele>296.2235107</ele>
<time>2012-04-06T11:46:44Z</time>
</trkpt>
<trkpt lat="50.2233400" lon="11.0171759">
<ele>296.7041016</ele>
<time>2012-04-06T11:46:49Z</time>
</trkpt>
<trkpt lat="50.2232315" lon="11.0172729">
<ele>297.6654053</ele>
<time>2012-04-06T11:46:53Z</time>
</trkpt>
<trkpt lat="50.2232115" lon="11.0173013">
<ele>296.7041016</ele>
<time>2012-04-06T11:46:54Z</time>
</trkpt>
<trkpt lat="50.2230862" lon="11.0174073">
<ele>297.1846924</ele>
<time>2012-04-06T11:46:58Z</time>
</trkpt>
<trkpt lat="50.2229915" lon="11.0175479">
<ele>297.1846924</ele>
<time>2012-04-06T11:47:02Z</time>
</trkpt>
<trkpt lat="50.2228853" lon="11.0177371">
<ele>296.7041016</ele>
<time>2012-04-06T11:47:07Z</time>
</trkpt>
<trkpt lat="50.2227694" lon="11.0179109">
<ele>295.7426758</ele>
<time>2012-04-06T11:47:12Z</time>
</trkpt>
<trkpt lat="50.2226536" lon="11.0180634">
<ele>295.2619629</ele>
<time>2012-04-06T11:47:17Z</time>
</trkpt>
<trkpt lat="50.2225488" lon="11.0181840">
<ele>294.3007813</ele>
<time>2012-04-06T11:47:21Z</time>
</trkpt>
<trkpt lat="50.2224931" lon="11.0182410">
<ele>294.7813721</ele>
<time>2012-04-06T11:47:23Z</time>
</trkpt>
<trkpt lat="50.2224066" lon="11.0183250">
<ele>293.8200684</ele>
<time>2012-04-06T11:47:27Z</time>
</trkpt>
<trkpt lat="50.2223315" lon="11.0184041">
<ele>294.7813721</ele>
<time>2012-04-06T11:47:30Z</time>
</trkpt>
<trkpt lat="50.2222077" lon="11.0184762">
<ele>295.2619629</ele>
<time>2012-04-06T11:47:34Z</time>
</trkpt>
<trkpt lat="50.2221045" lon="11.0185646">
<ele>296.2235107</ele>
<time>2012-04-06T11:47:38Z</time>
</trkpt>
<trkpt lat="50.2219679" lon="11.0186610">
<ele>298.1461182</ele>
<time>2012-04-06T11:47:43Z</time>
</trkpt>
<trkpt lat="50.2218621" lon="11.0187198">
<ele>300.5493164</ele>
<time>2012-04-06T11:47:47Z</time>
</trkpt>
<trkpt lat="50.2217008" lon="11.0188166">
<ele>302.9525146</ele>
<time>2012-04-06T11:47:53Z</time>
</trkpt>
<trkpt lat="50.2215910" lon="11.0189034">
<ele>302.4719238</ele>
<time>2012-04-06T11:47:57Z</time>
</trkpt>
<trkpt lat="50.2214989" lon="11.0190173">
<ele>300.5493164</ele>
<time>2012-04-06T11:48:01Z</time>
</trkpt>
<trkpt lat="50.2213687" lon="11.0191209">
<ele>301.5106201</ele>
<time>2012-04-06T11:48:06Z</time>
</trkpt>
<trkpt lat="50.2212498" lon="11.0191859">
<ele>303.9139404</ele>
<time>2012-04-06T11:48:10Z</time>
</trkpt>
<trkpt lat="50.2211528" lon="11.0192766">
<ele>303.9139404</ele>
<time>2012-04-06T11:48:14Z</time>
</trkpt>
<trkpt lat="50.2211290" lon="11.0192914">
<ele>304.3946533</ele>
<time>2012-04-06T11:48:15Z</time>
</trkpt>
<trkpt lat="50.2209979" lon="11.0193656">
<ele>306.7978516</ele>
<time>2012-04-06T11:48:20Z</time>
</trkpt>
<trkpt lat="50.2208582" lon="11.0194576">
<ele>309.2011719</ele>
<time>2012-04-06T11:48:25Z</time>
</trkpt>
<trkpt lat="50.2206866" lon="11.0195450">
<ele>313.5272217</ele>
<time>2012-04-06T11:48:31Z</time>
</trkpt>
<trkpt lat="50.2205615" lon="11.0196376">
<ele>315.9304199</ele>
<time>2012-04-06T11:48:36Z</time>
</trkpt>
<trkpt lat="50.2204914" lon="11.0196951">
<ele>317.8530273</ele>
<time>2012-04-06T11:48:39Z</time>
</trkpt>
<trkpt lat="50.2203547" lon="11.0197921">
<ele>318.3336182</ele>
<time>2012-04-06T11:48:44Z</time>
</trkpt>
<trkpt lat="50.2202360" lon="11.0198655">
<ele>318.8143311</ele>
<time>2012-04-06T11:48:48Z</time>
</trkpt>
<trkpt lat="50.2201206" lon="11.0200153">
<ele>318.3336182</ele>
<time>2012-04-06T11:48:53Z</time>
</trkpt>
<trkpt lat="50.2199593" lon="11.0201684">
<ele>319.7756348</ele>
<time>2012-04-06T11:48:59Z</time>
</trkpt>
<trkpt lat="50.2198375" lon="11.0203182">
<ele>319.2950439</ele>
<time>2012-04-06T11:49:04Z</time>
</trkpt>
<trkpt lat="50.2197130" lon="11.0203917">
<ele>332.7535400</ele>
<time>2012-04-06T11:49:09Z</time>
</trkpt>
<trkpt lat="50.2196968" lon="11.0204105">
<ele>335.6373291</ele>
<time>2012-04-06T11:49:10Z</time>
</trkpt>
<trkpt lat="50.2196125" lon="11.0205172">
<ele>339.9633789</ele>
<time>2012-04-06T11:49:14Z</time>
</trkpt>
<trkpt lat="50.2195505" lon="11.0205799">
<ele>345.2506104</ele>
<time>2012-04-06T11:49:17Z</time>
</trkpt>
<trkpt lat="50.2194715" lon="11.0207016">
<ele>350.0572510</ele>
<time>2012-04-06T11:49:21Z</time>
</trkpt>
<trkpt lat="50.2193875" lon="11.0208030">
<ele>355.3444824</ele>
<time>2012-04-06T11:49:25Z</time>
</trkpt>
<trkpt lat="50.2193124" lon="11.0209179">
<ele>358.2283936</ele>
<time>2012-04-06T11:49:29Z</time>
</trkpt>
<trkpt lat="50.2192724" lon="11.0210229">
<ele>360.1511230</ele>
<time>2012-04-06T11:49:32Z</time>
</trkpt>
<trkpt lat="50.2192087" lon="11.0211668">
<ele>361.1124268</ele>
<time>2012-04-06T11:49:36Z</time>
</trkpt>
<trkpt lat="50.2191732" lon="11.0213350">
<ele>360.6317139</ele>
<time>2012-04-06T11:49:39Z</time>
</trkpt>
<trkpt lat="50.2190967" lon="11.0215820">
<ele>356.3057861</ele>
<time>2012-04-06T11:49:45Z</time>
</trkpt>
<trkpt lat="50.2190885" lon="11.0216220">
<ele>355.8251953</ele>
<time>2012-04-06T11:49:46Z</time>
</trkpt>
<trkpt lat="50.2190183" lon="11.0218465">
<ele>352.4605713</ele>
<time>2012-04-06T11:49:51Z</time>
</trkpt>
<trkpt lat="50.2189662" lon="11.0220520">
<ele>348.6152344</ele>
<time>2012-04-06T11:49:55Z</time>
</trkpt>
<trkpt lat="50.2189271" lon="11.0222712">
<ele>345.7313232</ele>
<time>2012-04-06T11:49:59Z</time>
</trkpt>
<trkpt lat="50.2188337" lon="11.0225592">
<ele>338.5214844</ele>
<time>2012-04-06T11:50:05Z</time>
</trkpt>
<trkpt lat="50.2188160" lon="11.0228041">
<ele>335.1567383</ele>
<time>2012-04-06T11:50:10Z</time>
</trkpt>
<trkpt lat="50.2188228" lon="11.0230057">
<ele>330.3502197</ele>
<time>2012-04-06T11:50:14Z</time>
</trkpt>
<trkpt lat="50.2187763" lon="11.0231741">
<ele>330.8309326</ele>
<time>2012-04-06T11:50:18Z</time>
</trkpt>
<trkpt lat="50.2188017" lon="11.0233503">
<ele>327.4661865</ele>
<time>2012-04-06T11:50:23Z</time>
</trkpt>
<trkpt lat="50.2188105" lon="11.0233871">
<ele>326.5048828</ele>
<time>2012-04-06T11:50:24Z</time>
</trkpt>
<trkpt lat="50.2188341" lon="11.0235608">
<ele>323.1403809</ele>
<time>2012-04-06T11:50:28Z</time>
</trkpt>
<trkpt lat="50.2188571" lon="11.0236719">
<ele>321.2177734</ele>
<time>2012-04-06T11:50:31Z</time>
</trkpt>
<trkpt lat="50.2188831" lon="11.0238252">
<ele>320.2563477</ele>
<time>2012-04-06T11:50:35Z</time>
</trkpt>
<trkpt lat="50.2188836" lon="11.0238708">
<ele>320.2563477</ele>
<time>2012-04-06T11:50:36Z</time>
</trkpt>
<trkpt lat="50.2188948" lon="11.0240069">
<ele>320.2563477</ele>
<time>2012-04-06T11:50:39Z</time>
</trkpt>
<trkpt lat="50.2188981" lon="11.0242291">
<ele>320.7370605</ele>
<time>2012-04-06T11:50:44Z</time>
</trkpt>
<trkpt lat="50.2188866" lon="11.0244458">
<ele>321.6983643</ele>
<time>2012-04-06T11:50:49Z</time>
</trkpt>
<trkpt lat="50.2189329" lon="11.0247077">
<ele>324.1015625</ele>
<time>2012-04-06T11:50:55Z</time>
</trkpt>
<trkpt lat="50.2189508" lon="11.0248649">
<ele>325.0629883</ele>
<time>2012-04-06T11:50:58Z</time>
</trkpt>
<trkpt lat="50.2190405" lon="11.0250744">
<ele>326.0241699</ele>
<time>2012-04-06T11:51:03Z</time>
</trkpt>
<trkpt lat="50.2190975" lon="11.0251875">
<ele>326.5048828</ele>
<time>2012-04-06T11:51:06Z</time>
</trkpt>
<trkpt lat="50.2191430" lon="11.0252807">
<ele>326.5048828</ele>
<time>2012-04-06T11:51:09Z</time>
</trkpt>
<trkpt lat="50.2192077" lon="11.0253761">
<ele>325.0629883</ele>
<time>2012-04-06T11:51:12Z</time>
</trkpt>
<trkpt lat="50.2192599" lon="11.0254687">
<ele>324.1015625</ele>
<time>2012-04-06T11:51:15Z</time>
</trkpt>
<trkpt lat="50.2192972" lon="11.0255611">
<ele>322.6596680</ele>
<time>2012-04-06T11:51:18Z</time>
</trkpt>
<trkpt lat="50.2193243" lon="11.0256280">
<ele>322.1789551</ele>
<time>2012-04-06T11:51:20Z</time>
</trkpt>
<trkpt lat="50.2194260" lon="11.0257841">
<ele>320.7370605</ele>
<time>2012-04-06T11:51:25Z</time>
</trkpt>
<trkpt lat="50.2194559" lon="11.0258599">
<ele>320.2563477</ele>
<time>2012-04-06T11:51:27Z</time>
</trkpt>
<trkpt lat="50.2195655" lon="11.0260350">
<ele>319.7756348</ele>
<time>2012-04-06T11:51:32Z</time>
</trkpt>
<trkpt lat="50.2196432" lon="11.0261118">
<ele>319.7756348</ele>
<time>2012-04-06T11:51:35Z</time>
</trkpt>
<trkpt lat="50.2197248" lon="11.0262219">
<ele>319.2950439</ele>
<time>2012-04-06T11:51:39Z</time>
</trkpt>
<trkpt lat="50.2197869" lon="11.0263079">
<ele>319.2950439</ele>
<time>2012-04-06T11:51:42Z</time>
</trkpt>
<trkpt lat="50.2198577" lon="11.0264349">
<ele>318.8143311</ele>
<time>2012-04-06T11:51:46Z</time>
</trkpt>
<trkpt lat="50.2198699" lon="11.0266021">
<ele>322.6596680</ele>
<time>2012-04-06T11:51:49Z</time>
</trkpt>
<trkpt lat="50.2198994" lon="11.0266290">
<ele>322.1789551</ele>
<time>2012-04-06T11:51:50Z</time>
</trkpt>
<trkpt lat="50.2199987" lon="11.0267012">
<ele>322.1789551</ele>
<time>2012-04-06T11:51:53Z</time>
</trkpt>
<trkpt lat="50.2200973" lon="11.0269014">
<ele>321.6983643</ele>
<time>2012-04-06T11:51:59Z</time>
</trkpt>
<trkpt lat="50.2201644" lon="11.0270410">
<ele>320.2563477</ele>
<time>2012-04-06T11:52:03Z</time>
</trkpt>
<trkpt lat="50.2202094" lon="11.0272042">
<ele>320.2563477</ele>
<time>2012-04-06T11:52:07Z</time>
</trkpt>
<trkpt lat="50.2202759" lon="11.0273440">
<ele>319.7756348</ele>
<time>2012-04-06T11:52:11Z</time>
</trkpt>
<trkpt lat="50.2203702" lon="11.0274985">
<ele>319.2950439</ele>
<time>2012-04-06T11:52:16Z</time>
</trkpt>
<trkpt lat="50.2204226" lon="11.0276502">
<ele>317.8530273</ele>
<time>2012-04-06T11:52:20Z</time>
</trkpt>
<trkpt lat="50.2205130" lon="11.0278262">
<ele>317.3724365</ele>
<time>2012-04-06T11:52:25Z</time>
</trkpt>
<trkpt lat="50.2205888" lon="11.0279181">
<ele>316.4110107</ele>
<time>2012-04-06T11:52:28Z</time>
</trkpt>
<trkpt lat="50.2206779" lon="11.0280867">
<ele>317.3724365</ele>
<time>2012-04-06T11:52:33Z</time>
</trkpt>
<trkpt lat="50.2207735" lon="11.0282758">
<ele>317.3724365</ele>
<time>2012-04-06T11:52:38Z</time>
</trkpt>
<trkpt lat="50.2208307" lon="11.0283697">
<ele>317.3724365</ele>
<time>2012-04-06T11:52:41Z</time>
</trkpt>
<trkpt lat="50.2208768" lon="11.0285345">
<ele>318.3336182</ele>
<time>2012-04-06T11:52:45Z</time>
</trkpt>
<trkpt lat="50.2209038" lon="11.0286675">
<ele>318.8143311</ele>
<time>2012-04-06T11:52:48Z</time>
</trkpt>
<trkpt lat="50.2209795" lon="11.0288706">
<ele>320.2563477</ele>
<time>2012-04-06T11:52:53Z</time>
</trkpt>
<trkpt lat="50.2209857" lon="11.0289141">
<ele>320.7370605</ele>
<time>2012-04-06T11:52:54Z</time>
</trkpt>
<trkpt lat="50.2210526" lon="11.0290907">
<ele>322.1789551</ele>
<time>2012-04-06T11:52:58Z</time>
</trkpt>
<trkpt lat="50.2210601" lon="11.0291872">
<ele>323.1403809</ele>
<time>2012-04-06T11:53:00Z</time>
</trkpt>
<trkpt lat="50.2210880" lon="11.0292788">
<ele>324.1015625</ele>
<time>2012-04-06T11:53:02Z</time>
</trkpt>
<trkpt lat="50.2211284" lon="11.0295337">
<ele>326.5048828</ele>
<time>2012-04-06T11:53:07Z</time>
</trkpt>
<trkpt lat="50.2211470" lon="11.0297398">
<ele>328.4276123</ele>
<time>2012-04-06T11:53:11Z</time>
</trkpt>
<trkpt lat="50.2211779" lon="11.0298862">
<ele>330.3502197</ele>
<time>2012-04-06T11:53:14Z</time>
</trkpt>
<trkpt lat="50.2212509" lon="11.0300635">
<ele>331.3115234</ele>
<time>2012-04-06T11:53:18Z</time>
</trkpt>
<trkpt lat="50.2213182" lon="11.0302602">
<ele>331.3115234</ele>
<time>2012-04-06T11:53:23Z</time>
</trkpt>
<trkpt lat="50.2213566" lon="11.0303892">
<ele>330.8309326</ele>
<time>2012-04-06T11:53:26Z</time>
</trkpt>
<trkpt lat="50.2213944" lon="11.0305568">
<ele>331.3115234</ele>
<time>2012-04-06T11:53:30Z</time>
</trkpt>
<trkpt lat="50.2214517" lon="11.0307080">
<ele>331.7921143</ele>
<time>2012-04-06T11:53:34Z</time>
</trkpt>
<trkpt lat="50.2215620" lon="11.0308637">
<ele>332.2728271</ele>
<time>2012-04-06T11:53:38Z</time>
</trkpt>
<trkpt lat="50.2216408" lon="11.0309850">
<ele>332.2728271</ele>
<time>2012-04-06T11:53:41Z</time>
</trkpt>
<trkpt lat="50.2216788" lon="11.0311674">
<ele>332.2728271</ele>
<time>2012-04-06T11:53:46Z</time>
</trkpt>
<trkpt lat="50.2217341" lon="11.0312804">
<ele>331.7921143</ele>
<time>2012-04-06T11:53:49Z</time>
</trkpt>
<trkpt lat="50.2218278" lon="11.0314378">
<ele>330.8309326</ele>
<time>2012-04-06T11:53:53Z</time>
</trkpt>
<trkpt lat="50.2217016" lon="11.0317496">
<ele>335.6373291</ele>
<time>2012-04-06T11:53:57Z</time>
</trkpt>
<trkpt lat="50.2216338" lon="11.0319006">
<ele>337.0794678</ele>
<time>2012-04-06T11:54:00Z</time>
</trkpt>
<trkpt lat="50.2215477" lon="11.0321051">
<ele>338.5214844</ele>
<time>2012-04-06T11:54:04Z</time>
</trkpt>
<trkpt lat="50.2214809" lon="11.0322851">
<ele>339.0020752</ele>
<time>2012-04-06T11:54:08Z</time>
</trkpt>
<trkpt lat="50.2214223" lon="11.0324651">
<ele>339.0020752</ele>
<time>2012-04-06T11:54:12Z</time>
</trkpt>
<trkpt lat="50.2213198" lon="11.0327311">
<ele>340.9246826</ele>
<time>2012-04-06T11:54:18Z</time>
</trkpt>
<trkpt lat="50.2212384" lon="11.0329151">
<ele>342.3666992</ele>
<time>2012-04-06T11:54:23Z</time>
</trkpt>
<trkpt lat="50.2211802" lon="11.0330437">
<ele>344.7700195</ele>
<time>2012-04-06T11:54:27Z</time>
</trkpt>
<trkpt lat="50.2211145" lon="11.0332068">
<ele>346.6926270</ele>
<time>2012-04-06T11:54:32Z</time>
</trkpt>
<trkpt lat="50.2210595" lon="11.0333239">
<ele>347.6539307</ele>
<time>2012-04-06T11:54:35Z</time>
</trkpt>
<trkpt lat="50.2209868" lon="11.0335006">
<ele>350.0572510</ele>
<time>2012-04-06T11:54:40Z</time>
</trkpt>
<trkpt lat="50.2208939" lon="11.0337249">
<ele>351.9798584</ele>
<time>2012-04-06T11:54:47Z</time>
</trkpt>
<trkpt lat="50.2208179" lon="11.0338949">
<ele>352.9411621</ele>
<time>2012-04-06T11:54:52Z</time>
</trkpt>
<trkpt lat="50.2207317" lon="11.0341039">
<ele>353.9025879</ele>
<time>2012-04-06T11:54:58Z</time>
</trkpt>
<trkpt lat="50.2206748" lon="11.0342610">
<ele>353.9025879</ele>
<time>2012-04-06T11:55:02Z</time>
</trkpt>
<trkpt lat="50.2206194" lon="11.0344271">
<ele>354.3831787</ele>
<time>2012-04-06T11:55:07Z</time>
</trkpt>
<trkpt lat="50.2205584" lon="11.0346039">
<ele>354.8637695</ele>
<time>2012-04-06T11:55:12Z</time>
</trkpt>
<trkpt lat="50.2204924" lon="11.0347520">
<ele>355.3444824</ele>
<time>2012-04-06T11:55:16Z</time>
</trkpt>
<trkpt lat="50.2204075" lon="11.0349438">
<ele>355.3444824</ele>
<time>2012-04-06T11:55:21Z</time>
</trkpt>
<trkpt lat="50.2203148" lon="11.0351469">
<ele>356.3057861</ele>
<time>2012-04-06T11:55:27Z</time>
</trkpt>
<trkpt lat="50.2202247" lon="11.0353363">
<ele>355.8251953</ele>
<time>2012-04-06T11:55:32Z</time>
</trkpt>
<trkpt lat="50.2201708" lon="11.0355068">
<ele>356.3057861</ele>
<time>2012-04-06T11:55:37Z</time>
</trkpt>
<trkpt lat="50.2201204" lon="11.0357038">
<ele>359.6704102</ele>
<time>2012-04-06T11:55:42Z</time>
</trkpt>
<trkpt lat="50.2200827" lon="11.0358802">
<ele>361.1124268</ele>
<time>2012-04-06T11:55:46Z</time>
</trkpt>
<trkpt lat="50.2200641" lon="11.0360342">
<ele>362.5543213</ele>
<time>2012-04-06T11:55:50Z</time>
</trkpt>
<trkpt lat="50.2200092" lon="11.0362335">
<ele>363.5157471</ele>
<time>2012-04-06T11:55:54Z</time>
</trkpt>
<trkpt lat="50.2199662" lon="11.0363986">
<ele>364.9576416</ele>
<time>2012-04-06T11:55:57Z</time>
</trkpt>
<trkpt lat="50.2199285" lon="11.0366293">
<ele>366.8802490</ele>
<time>2012-04-06T11:56:02Z</time>
</trkpt>
<trkpt lat="50.2198951" lon="11.0367697">
<ele>366.3995361</ele>
<time>2012-04-06T11:56:05Z</time>
</trkpt>
<trkpt lat="50.2198263" lon="11.0370339">
<ele>364.4769287</ele>
<time>2012-04-06T11:56:10Z</time>
</trkpt>
<trkpt lat="50.2198056" lon="11.0371748">
<ele>363.5157471</ele>
<time>2012-04-06T11:56:13Z</time>
</trkpt>
<trkpt lat="50.2197776" lon="11.0373079">
<ele>361.5931396</ele>
<time>2012-04-06T11:56:16Z</time>
</trkpt>
<trkpt lat="50.2197692" lon="11.0373504">
<ele>361.1124268</ele>
<time>2012-04-06T11:56:17Z</time>
</trkpt>
<trkpt lat="50.2197479" lon="11.0375039">
<ele>359.6704102</ele>
<time>2012-04-06T11:56:21Z</time>
</trkpt>
<trkpt lat="50.2197212" lon="11.0376613">
<ele>358.7089844</ele>
<time>2012-04-06T11:56:25Z</time>
</trkpt>
<trkpt lat="50.2197034" lon="11.0378659">
<ele>356.3057861</ele>
<time>2012-04-06T11:56:30Z</time>
</trkpt>
<trkpt lat="50.2197159" lon="11.0380065">
<ele>354.3831787</ele>
<time>2012-04-06T11:56:33Z</time>
</trkpt>
<trkpt lat="50.2197471" lon="11.0381830">
<ele>352.4605713</ele>
<time>2012-04-06T11:56:37Z</time>
</trkpt>
<trkpt lat="50.2197850" lon="11.0383593">
<ele>351.4991455</ele>
<time>2012-04-06T11:56:41Z</time>
</trkpt>
<trkpt lat="50.2197907" lon="11.0385104">
<ele>351.0184326</ele>
<time>2012-04-06T11:56:44Z</time>
</trkpt>
<trkpt lat="50.2197762" lon="11.0387790">
<ele>351.0184326</ele>
<time>2012-04-06T11:56:49Z</time>
</trkpt>
<trkpt lat="50.2197652" lon="11.0389494">
<ele>350.0572510</ele>
<time>2012-04-06T11:56:52Z</time>
</trkpt>
<trkpt lat="50.2198059" lon="11.0391888">
<ele>350.5378418</ele>
<time>2012-04-06T11:56:57Z</time>
</trkpt>
<trkpt lat="50.2198293" lon="11.0393292">
<ele>350.0572510</ele>
<time>2012-04-06T11:57:00Z</time>
</trkpt>
<trkpt lat="50.2198346" lon="11.0395914">
<ele>349.0958252</ele>
<time>2012-04-06T11:57:05Z</time>
</trkpt>
<trkpt lat="50.2198279" lon="11.0398111">
<ele>348.1346436</ele>
<time>2012-04-06T11:57:09Z</time>
</trkpt>
<trkpt lat="50.2198471" lon="11.0400068">
<ele>347.1732178</ele>
<time>2012-04-06T11:57:13Z</time>
</trkpt>
<trkpt lat="50.2198428" lon="11.0401617">
<ele>346.6926270</ele>
<time>2012-04-06T11:57:16Z</time>
</trkpt>
<trkpt lat="50.2198844" lon="11.0404429">
<ele>346.2120361</ele>
<time>2012-04-06T11:57:22Z</time>
</trkpt>
<trkpt lat="50.2199061" lon="11.0405842">
<ele>345.7313232</ele>
<time>2012-04-06T11:57:25Z</time>
</trkpt>
<trkpt lat="50.2199387" lon="11.0408320">
<ele>344.7700195</ele>
<time>2012-04-06T11:57:30Z</time>
</trkpt>
<trkpt lat="50.2199629" lon="11.0410210">
<ele>343.8085938</ele>
<time>2012-04-06T11:57:34Z</time>
</trkpt>
<trkpt lat="50.2200071" lon="11.0411990">
<ele>343.3278809</ele>
<time>2012-04-06T11:57:38Z</time>
</trkpt>
<trkpt lat="50.2200237" lon="11.0412930">
<ele>342.3666992</ele>
<time>2012-04-06T11:57:40Z</time>
</trkpt>
<trkpt lat="50.2200760" lon="11.0415805">
<ele>341.8859863</ele>
<time>2012-04-06T11:57:46Z</time>
</trkpt>
<trkpt lat="50.2200801" lon="11.0417818">
<ele>340.9246826</ele>
<time>2012-04-06T11:57:50Z</time>
</trkpt>
<trkpt lat="50.2200786" lon="11.0419343">
<ele>340.4440918</ele>
<time>2012-04-06T11:57:53Z</time>
</trkpt>
<trkpt lat="50.2200549" lon="11.0421405">
<ele>339.4826660</ele>
<time>2012-04-06T11:57:57Z</time>
</trkpt>
<trkpt lat="50.2200330" lon="11.0423457">
<ele>339.4826660</ele>
<time>2012-04-06T11:58:01Z</time>
</trkpt>
<trkpt lat="50.2200069" lon="11.0424968">
<ele>339.0020752</ele>
<time>2012-04-06T11:58:04Z</time>
</trkpt>
<trkpt lat="50.2199456" lon="11.0427647">
<ele>337.5600586</ele>
<time>2012-04-06T11:58:09Z</time>
</trkpt>
<trkpt lat="50.2198893" lon="11.0429321">
<ele>336.1181641</ele>
<time>2012-04-06T11:58:12Z</time>
</trkpt>
<trkpt lat="50.2198699" lon="11.0430826">
<ele>334.6761475</ele>
<time>2012-04-06T11:58:16Z</time>
</trkpt>
<trkpt lat="50.2198492" lon="11.0432190">
<ele>333.7147217</ele>
<time>2012-04-06T11:58:19Z</time>
</trkpt>
<trkpt lat="50.2197916" lon="11.0434864">
<ele>335.1567383</ele>
<time>2012-04-06T11:58:24Z</time>
</trkpt>
<trkpt lat="50.2197418" lon="11.0437264">
<ele>335.6373291</ele>
<time>2012-04-06T11:58:28Z</time>
</trkpt>
<trkpt lat="50.2197373" lon="11.0438793">
<ele>335.1567383</ele>
<time>2012-04-06T11:58:31Z</time>
</trkpt>
<trkpt lat="50.2197811" lon="11.0441020">
<ele>333.2341309</ele>
<time>2012-04-06T11:58:36Z</time>
</trkpt>
<trkpt lat="50.2198183" lon="11.0442947">
<ele>333.2341309</ele>
<time>2012-04-06T11:58:40Z</time>
</trkpt>
<trkpt lat="50.2198249" lon="11.0443441">
<ele>333.2341309</ele>
<time>2012-04-06T11:58:41Z</time>
</trkpt>
<trkpt lat="50.2197448" lon="11.0445087">
<ele>330.8309326</ele>
<time>2012-04-06T11:58:46Z</time>
</trkpt>
<trkpt lat="50.2195350" lon="11.0445366">
<ele>328.4276123</ele>
<time>2012-04-06T11:58:52Z</time>
</trkpt>
<trkpt lat="50.2193943" lon="11.0445361">
<ele>326.9855957</ele>
<time>2012-04-06T11:58:56Z</time>
</trkpt>
<trkpt lat="50.2192607" lon="11.0445470">
<ele>327.4661865</ele>
<time>2012-04-06T11:59:00Z</time>
</trkpt>
<trkpt lat="50.2191404" lon="11.0445876">
<ele>328.4276123</ele>
<time>2012-04-06T11:59:04Z</time>
</trkpt>
<trkpt lat="50.2190170" lon="11.0446278">
<ele>328.9083252</ele>
<time>2012-04-06T11:59:08Z</time>
</trkpt>
<trkpt lat="50.2188991" lon="11.0446834">
<ele>330.3502197</ele>
<time>2012-04-06T11:59:12Z</time>
</trkpt>
<trkpt lat="50.2187766" lon="11.0447603">
<ele>330.8309326</ele>
<time>2012-04-06T11:59:16Z</time>
</trkpt>
<trkpt lat="50.2187473" lon="11.0447854">
<ele>330.8309326</ele>
<time>2012-04-06T11:59:17Z</time>
</trkpt>
<trkpt lat="50.2186701" lon="11.0449025">
<ele>330.3502197</ele>
<time>2012-04-06T11:59:21Z</time>
</trkpt>
<trkpt lat="50.2185375" lon="11.0450434">
<ele>328.9083252</ele>
<time>2012-04-06T11:59:26Z</time>
</trkpt>
<trkpt lat="50.2184090" lon="11.0451720">
<ele>327.9467773</ele>
<time>2012-04-06T11:59:31Z</time>
</trkpt>
<trkpt lat="50.2182546" lon="11.0453029">
<ele>327.4661865</ele>
<time>2012-04-06T11:59:37Z</time>
</trkpt>
<trkpt lat="50.2181133" lon="11.0454096">
<ele>328.4276123</ele>
<time>2012-04-06T11:59:42Z</time>
</trkpt>
<trkpt lat="50.2180146" lon="11.0454692">
<ele>329.8695068</ele>
<time>2012-04-06T11:59:46Z</time>
</trkpt>
<trkpt lat="50.2179242" lon="11.0455277">
<ele>330.8309326</ele>
<time>2012-04-06T11:59:50Z</time>
</trkpt>
<trkpt lat="50.2177740" lon="11.0456350">
<ele>332.2728271</ele>
<time>2012-04-06T11:59:55Z</time>
</trkpt>
<trkpt lat="50.2176231" lon="11.0457287">
<ele>333.7147217</ele>
<time>2012-04-06T12:00:00Z</time>
</trkpt>
<trkpt lat="50.2175180" lon="11.0457955">
<ele>334.6761475</ele>
<time>2012-04-06T12:00:04Z</time>
</trkpt>
<trkpt lat="50.2173972" lon="11.0458593">
<ele>336.1181641</ele>
<time>2012-04-06T12:00:09Z</time>
</trkpt>
<trkpt lat="50.2172993" lon="11.0459168">
<ele>338.0407715</ele>
<time>2012-04-06T12:00:13Z</time>
</trkpt>
<trkpt lat="50.2171872" lon="11.0459958">
<ele>339.4826660</ele>
<time>2012-04-06T12:00:18Z</time>
</trkpt>
<trkpt lat="50.2170810" lon="11.0460481">
<ele>341.8859863</ele>
<time>2012-04-06T12:00:22Z</time>
</trkpt>
<trkpt lat="50.2169457" lon="11.0460981">
<ele>343.8085938</ele>
<time>2012-04-06T12:00:27Z</time>
</trkpt>
<trkpt lat="50.2168275" lon="11.0461296">
<ele>344.7700195</ele>
<time>2012-04-06T12:00:31Z</time>
</trkpt>
<trkpt lat="50.2167688" lon="11.0461590">
<ele>345.2506104</ele>
<time>2012-04-06T12:00:34Z</time>
</trkpt>
<trkpt lat="50.2167153" lon="11.0462954">
<ele>345.2506104</ele>
<time>2012-04-06T12:00:38Z</time>
</trkpt>
<trkpt lat="50.2167067" lon="11.0463453">
<ele>345.2506104</ele>
<time>2012-04-06T12:00:39Z</time>
</trkpt>
<trkpt lat="50.2167415" lon="11.0465333">
<ele>343.8085938</ele>
<time>2012-04-06T12:00:44Z</time>
</trkpt>
<trkpt lat="50.2167804" lon="11.0466889">
<ele>340.4440918</ele>
<time>2012-04-06T12:00:48Z</time>
</trkpt>
<trkpt lat="50.2168212" lon="11.0467730">
<ele>339.4826660</ele>
<time>2012-04-06T12:00:50Z</time>
</trkpt>
<trkpt lat="50.2168489" lon="11.0469533">
<ele>337.5600586</ele>
<time>2012-04-06T12:00:54Z</time>
</trkpt>
<trkpt lat="50.2168984" lon="11.0470792">
<ele>337.0794678</ele>
<time>2012-04-06T12:00:57Z</time>
</trkpt>
<trkpt lat="50.2170170" lon="11.0472670">
<ele>335.6373291</ele>
<time>2012-04-06T12:01:02Z</time>
</trkpt>
<trkpt lat="50.2170263" lon="11.0473200">
<ele>335.6373291</ele>
<time>2012-04-06T12:01:03Z</time>
</trkpt>
<trkpt lat="50.2170897" lon="11.0475662">
<ele>336.1181641</ele>
<time>2012-04-06T12:01:08Z</time>
</trkpt>
<trkpt lat="50.2170814" lon="11.0477602">
<ele>337.5600586</ele>
<time>2012-04-06T12:01:12Z</time>
</trkpt>
<trkpt lat="50.2170625" lon="11.0479938">
<ele>339.0020752</ele>
<time>2012-04-06T12:01:17Z</time>
</trkpt>
<trkpt lat="50.2170369" lon="11.0481787">
<ele>339.9633789</ele>
<time>2012-04-06T12:01:21Z</time>
</trkpt>
<trkpt lat="50.2169637" lon="11.0484379">
<ele>340.4440918</ele>
<time>2012-04-06T12:01:26Z</time>
</trkpt>
<trkpt lat="50.2169161" lon="11.0486462">
<ele>340.4440918</ele>
<time>2012-04-06T12:01:30Z</time>
</trkpt>
<trkpt lat="50.2168997" lon="11.0488371">
<ele>340.4440918</ele>
<time>2012-04-06T12:01:34Z</time>
</trkpt>
<trkpt lat="50.2168817" lon="11.0490631">
<ele>339.4826660</ele>
<time>2012-04-06T12:01:38Z</time>
</trkpt>
<trkpt lat="50.2169300" lon="11.0492604">
<ele>339.4826660</ele>
<time>2012-04-06T12:01:42Z</time>
</trkpt>
<trkpt lat="50.2170002" lon="11.0495107">
<ele>339.4826660</ele>
<time>2012-04-06T12:01:47Z</time>
</trkpt>
<trkpt lat="50.2170467" lon="11.0497180">
<ele>339.0020752</ele>
<time>2012-04-06T12:01:51Z</time>
</trkpt>
<trkpt lat="50.2170328" lon="11.0499198">
<ele>336.5988770</ele>
<time>2012-04-06T12:01:55Z</time>
</trkpt>
<trkpt lat="50.2170411" lon="11.0501624">
<ele>334.1954346</ele>
<time>2012-04-06T12:02:00Z</time>
</trkpt>
<trkpt lat="50.2170880" lon="11.0503235">
<ele>332.7535400</ele>
<time>2012-04-06T12:02:04Z</time>
</trkpt>
<trkpt lat="50.2171076" lon="11.0505705">
<ele>334.1954346</ele>
<time>2012-04-06T12:02:09Z</time>
</trkpt>
<trkpt lat="50.2171124" lon="11.0506724">
<ele>334.6761475</ele>
<time>2012-04-06T12:02:11Z</time>
</trkpt>
<trkpt lat="50.2171133" lon="11.0509326">
<ele>336.1181641</ele>
<time>2012-04-06T12:02:16Z</time>
</trkpt>
<trkpt lat="50.2171240" lon="11.0511902">
<ele>337.5600586</ele>
<time>2012-04-06T12:02:21Z</time>
</trkpt>
<trkpt lat="50.2171193" lon="11.0514025">
<ele>338.5214844</ele>
<time>2012-04-06T12:02:25Z</time>
</trkpt>
<trkpt lat="50.2171523" lon="11.0515849">
<ele>339.0020752</ele>
<time>2012-04-06T12:02:29Z</time>
</trkpt>
<trkpt lat="50.2171719" lon="11.0517743">
<ele>338.0407715</ele>
<time>2012-04-06T12:02:33Z</time>
</trkpt>
<trkpt lat="50.2171754" lon="11.0518732">
<ele>338.0407715</ele>
<time>2012-04-06T12:02:35Z</time>
</trkpt>
<trkpt lat="50.2172583" lon="11.0520396">
<ele>337.5600586</ele>
<time>2012-04-06T12:02:40Z</time>
</trkpt>
<trkpt lat="50.2173270" lon="11.0521223">
<ele>338.5214844</ele>
<time>2012-04-06T12:02:43Z</time>
</trkpt>
<trkpt lat="50.2173678" lon="11.0522405">
<ele>339.9633789</ele>
<time>2012-04-06T12:02:46Z</time>
</trkpt>
<trkpt lat="50.2174129" lon="11.0524043">
<ele>340.9246826</ele>
<time>2012-04-06T12:02:50Z</time>
</trkpt>
<trkpt lat="50.2174750" lon="11.0526513">
<ele>341.8859863</ele>
<time>2012-04-06T12:02:56Z</time>
</trkpt>
<trkpt lat="50.2175114" lon="11.0528266">
<ele>342.3666992</ele>
<time>2012-04-06T12:03:00Z</time>
</trkpt>
<trkpt lat="50.2175391" lon="11.0530156">
<ele>342.3666992</ele>
<time>2012-04-06T12:03:04Z</time>
</trkpt>
<trkpt lat="50.2175808" lon="11.0532590">
<ele>342.8472900</ele>
<time>2012-04-06T12:03:09Z</time>
</trkpt>
<trkpt lat="50.2175990" lon="11.0532999">
<ele>342.8472900</ele>
<time>2012-04-06T12:03:10Z</time>
</trkpt>
<trkpt lat="50.2177019" lon="11.0535429">
<ele>343.3278809</ele>
<time>2012-04-06T12:03:16Z</time>
</trkpt>
<trkpt lat="50.2177522" lon="11.0537699">
<ele>343.3278809</ele>
<time>2012-04-06T12:03:21Z</time>
</trkpt>
<trkpt lat="50.2177635" lon="11.0539760">
<ele>343.3278809</ele>
<time>2012-04-06T12:03:25Z</time>
</trkpt>
<trkpt lat="50.2177932" lon="11.0540602">
<ele>342.8472900</ele>
<time>2012-04-06T12:03:27Z</time>
</trkpt>
<trkpt lat="50.2178654" lon="11.0543184">
<ele>341.4052734</ele>
<time>2012-04-06T12:03:33Z</time>
</trkpt>
<trkpt lat="50.2178951" lon="11.0545136">
<ele>340.9246826</ele>
<time>2012-04-06T12:03:37Z</time>
</trkpt>
<trkpt lat="50.2179086" lon="11.0545578">
<ele>340.9246826</ele>
<time>2012-04-06T12:03:38Z</time>
</trkpt>
<trkpt lat="50.2179563" lon="11.0547368">
<ele>340.4440918</ele>
<time>2012-04-06T12:03:42Z</time>
</trkpt>
<trkpt lat="50.2179778" lon="11.0548235">
<ele>339.9633789</ele>
<time>2012-04-06T12:03:44Z</time>
</trkpt>
<trkpt lat="50.2180247" lon="11.0549467">
<ele>339.9633789</ele>
<time>2012-04-06T12:03:47Z</time>
</trkpt>
<trkpt lat="50.2180858" lon="11.0552288">
<ele>339.9633789</ele>
<time>2012-04-06T12:03:53Z</time>
</trkpt>
<trkpt lat="50.2181042" lon="11.0552692">
<ele>339.9633789</ele>
<time>2012-04-06T12:03:54Z</time>
</trkpt>
<trkpt lat="50.2181519" lon="11.0553933">
<ele>339.4826660</ele>
<time>2012-04-06T12:03:57Z</time>
</trkpt>
<trkpt lat="50.2181438" lon="11.0557139">
<ele>338.5214844</ele>
<time>2012-04-06T12:04:03Z</time>
</trkpt>
<trkpt lat="50.2181329" lon="11.0559127">
<ele>337.0794678</ele>
<time>2012-04-06T12:04:07Z</time>
</trkpt>
<trkpt lat="50.2181122" lon="11.0561188">
<ele>337.0794678</ele>
<time>2012-04-06T12:04:12Z</time>
</trkpt>
<trkpt lat="50.2181046" lon="11.0561649">
<ele>337.0794678</ele>
<time>2012-04-06T12:04:13Z</time>
</trkpt>
<trkpt lat="50.2180515" lon="11.0563596">
<ele>336.1181641</ele>
<time>2012-04-06T12:04:17Z</time>
</trkpt>
<trkpt lat="50.2179641" lon="11.0566064">
<ele>334.1954346</ele>
<time>2012-04-06T12:04:22Z</time>
</trkpt>
<trkpt lat="50.2178911" lon="11.0568229">
<ele>331.7921143</ele>
<time>2012-04-06T12:04:27Z</time>
</trkpt>
<trkpt lat="50.2178328" lon="11.0570093">
<ele>330.8309326</ele>
<time>2012-04-06T12:04:31Z</time>
</trkpt>
<trkpt lat="50.2177880" lon="11.0571900">
<ele>329.3889160</ele>
<time>2012-04-06T12:04:35Z</time>
</trkpt>
<trkpt lat="50.2177480" lon="11.0573589">
<ele>328.9083252</ele>
<time>2012-04-06T12:04:39Z</time>
</trkpt>
<trkpt lat="50.2177206" lon="11.0575003">
<ele>328.4276123</ele>
<time>2012-04-06T12:04:43Z</time>
</trkpt>
<trkpt lat="50.2176739" lon="11.0576606">
<ele>328.4276123</ele>
<time>2012-04-06T12:04:47Z</time>
</trkpt>
<trkpt lat="50.2175992" lon="11.0578843">
<ele>327.9467773</ele>
<time>2012-04-06T12:04:52Z</time>
</trkpt>
<trkpt lat="50.2175171" lon="11.0580527">
<ele>326.9855957</ele>
<time>2012-04-06T12:04:57Z</time>
</trkpt>
<trkpt lat="50.2174357" lon="11.0582594">
<ele>326.0241699</ele>
<time>2012-04-06T12:05:02Z</time>
</trkpt>
<trkpt lat="50.2173718" lon="11.0584438">
<ele>324.1015625</ele>
<time>2012-04-06T12:05:06Z</time>
</trkpt>
<trkpt lat="50.2172876" lon="11.0586765">
<ele>322.1789551</ele>
<time>2012-04-06T12:05:11Z</time>
</trkpt>
<trkpt lat="50.2172549" lon="11.0588757">
<ele>321.6983643</ele>
<time>2012-04-06T12:05:15Z</time>
</trkpt>
<trkpt lat="50.2172319" lon="11.0591237">
<ele>321.2177734</ele>
<time>2012-04-06T12:05:20Z</time>
</trkpt>
<trkpt lat="50.2172192" lon="11.0593757">
<ele>319.7756348</ele>
<time>2012-04-06T12:05:25Z</time>
</trkpt>
<trkpt lat="50.2172193" lon="11.0594761">
<ele>318.8143311</ele>
<time>2012-04-06T12:05:27Z</time>
</trkpt>
<trkpt lat="50.2172294" lon="11.0596622">
<ele>318.3336182</ele>
<time>2012-04-06T12:05:31Z</time>
</trkpt>
<trkpt lat="50.2172119" lon="11.0599838">
<ele>318.3336182</ele>
<time>2012-04-06T12:05:37Z</time>
</trkpt>
<trkpt lat="50.2172026" lon="11.0601428">
<ele>317.8530273</ele>
<time>2012-04-06T12:05:40Z</time>
</trkpt>
<trkpt lat="50.2171865" lon="11.0603954">
<ele>318.8143311</ele>
<time>2012-04-06T12:05:45Z</time>
</trkpt>
<trkpt lat="50.2172016" lon="11.0606883">
<ele>319.7756348</ele>
<time>2012-04-06T12:05:51Z</time>
</trkpt>
<trkpt lat="50.2172019" lon="11.0609508">
<ele>318.8143311</ele>
<time>2012-04-06T12:05:56Z</time>
</trkpt>
<trkpt lat="50.2172112" lon="11.0609984">
<ele>318.3336182</ele>
<time>2012-04-06T12:05:57Z</time>
</trkpt>
<trkpt lat="50.2172602" lon="11.0612338">
<ele>317.8530273</ele>
<time>2012-04-06T12:06:02Z</time>
</trkpt>
<trkpt lat="50.2173123" lon="11.0614208">
<ele>316.8917236</ele>
<time>2012-04-06T12:06:06Z</time>
</trkpt>
<trkpt lat="50.2173878" lon="11.0616476">
<ele>315.9304199</ele>
<time>2012-04-06T12:06:11Z</time>
</trkpt>
<trkpt lat="50.2174417" lon="11.0618335">
<ele>316.4110107</ele>
<time>2012-04-06T12:06:15Z</time>
</trkpt>
<trkpt lat="50.2174735" lon="11.0619259">
<ele>316.8917236</ele>
<time>2012-04-06T12:06:17Z</time>
</trkpt>
<trkpt lat="50.2175324" lon="11.0622192">
<ele>317.8530273</ele>
<time>2012-04-06T12:06:23Z</time>
</trkpt>
<trkpt lat="50.2175807" lon="11.0624552">
<ele>318.8143311</ele>
<time>2012-04-06T12:06:28Z</time>
</trkpt>
<trkpt lat="50.2176016" lon="11.0625932">
<ele>318.8143311</ele>
<time>2012-04-06T12:06:31Z</time>
</trkpt>
<trkpt lat="50.2176191" lon="11.0627547">
<ele>316.8917236</ele>
<time>2012-04-06T12:06:35Z</time>
</trkpt>
<trkpt lat="50.2175971" lon="11.0629531">
<ele>316.4110107</ele>
<time>2012-04-06T12:06:40Z</time>
</trkpt>
<trkpt lat="50.2175284" lon="11.0631074">
<ele>316.4110107</ele>
<time>2012-04-06T12:06:44Z</time>
</trkpt>
<trkpt lat="50.2174289" lon="11.0632995">
<ele>315.9304199</ele>
<time>2012-04-06T12:06:48Z</time>
</trkpt>
<trkpt lat="50.2173485" lon="11.0634466">
<ele>314.9691162</ele>
<time>2012-04-06T12:06:52Z</time>
</trkpt>
<trkpt lat="50.2172767" lon="11.0635752">
<ele>314.0078125</ele>
<time>2012-04-06T12:06:56Z</time>
</trkpt>
<trkpt lat="50.2171643" lon="11.0637579">
<ele>312.5657959</ele>
<time>2012-04-06T12:07:01Z</time>
</trkpt>
<trkpt lat="50.2170793" lon="11.0638953">
<ele>311.1237793</ele>
<time>2012-04-06T12:07:05Z</time>
</trkpt>
<trkpt lat="50.2169857" lon="11.0640716">
<ele>310.6430664</ele>
<time>2012-04-06T12:07:10Z</time>
</trkpt>
<trkpt lat="50.2168743" lon="11.0642505">
<ele>311.1237793</ele>
<time>2012-04-06T12:07:15Z</time>
</trkpt>
<trkpt lat="50.2167614" lon="11.0644299">
<ele>311.1237793</ele>
<time>2012-04-06T12:07:20Z</time>
</trkpt>
<trkpt lat="50.2166668" lon="11.0646040">
<ele>310.6430664</ele>
<time>2012-04-06T12:07:25Z</time>
</trkpt>
<trkpt lat="50.2165530" lon="11.0648061">
<ele>309.6818848</ele>
<time>2012-04-06T12:07:30Z</time>
</trkpt>
<trkpt lat="50.2164111" lon="11.0650374">
<ele>310.1624756</ele>
<time>2012-04-06T12:07:36Z</time>
</trkpt>
<trkpt lat="50.2163198" lon="11.0651912">
<ele>310.1624756</ele>
<time>2012-04-06T12:07:40Z</time>
</trkpt>
<trkpt lat="50.2162582" lon="11.0653499">
<ele>309.2011719</ele>
<time>2012-04-06T12:07:44Z</time>
</trkpt>
<trkpt lat="50.2162412" lon="11.0654685">
<ele>308.2398682</ele>
<time>2012-04-06T12:07:46Z</time>
</trkpt>
<trkpt lat="50.2163773" lon="11.0655145">
<ele>306.7978516</ele>
<time>2012-04-06T12:07:50Z</time>
</trkpt>
<trkpt lat="50.2165380" lon="11.0655318">
<ele>304.8752441</ele>
<time>2012-04-06T12:07:55Z</time>
</trkpt>
<trkpt lat="50.2166784" lon="11.0655598">
<ele>304.8752441</ele>
<time>2012-04-06T12:08:00Z</time>
</trkpt>
<trkpt lat="50.2167900" lon="11.0655939">
<ele>304.8752441</ele>
<time>2012-04-06T12:08:04Z</time>
</trkpt>
<trkpt lat="50.2169135" lon="11.0656466">
<ele>305.8366699</ele>
<time>2012-04-06T12:08:08Z</time>
</trkpt>
<trkpt lat="50.2170644" lon="11.0657076">
<ele>306.7978516</ele>
<time>2012-04-06T12:08:13Z</time>
</trkpt>
<trkpt lat="50.2172271" lon="11.0657532">
<ele>308.7204590</ele>
<time>2012-04-06T12:08:18Z</time>
</trkpt>
<trkpt lat="50.2172890" lon="11.0657783">
<ele>308.7204590</ele>
<time>2012-04-06T12:08:20Z</time>
</trkpt>
<trkpt lat="50.2174269" lon="11.0658411">
<ele>310.1624756</ele>
<time>2012-04-06T12:08:25Z</time>
</trkpt>
<trkpt lat="50.2175233" lon="11.0658685">
<ele>310.6430664</ele>
<time>2012-04-06T12:08:28Z</time>
</trkpt>
<trkpt lat="50.2176662" lon="11.0659460">
<ele>313.0465088</ele>
<time>2012-04-06T12:08:33Z</time>
</trkpt>
<trkpt lat="50.2177785" lon="11.0659977">
<ele>314.4884033</ele>
<time>2012-04-06T12:08:37Z</time>
</trkpt>
<trkpt lat="50.2179528" lon="11.0660648">
<ele>315.4498291</ele>
<time>2012-04-06T12:08:42Z</time>
</trkpt>
<trkpt lat="50.2180749" lon="11.0660889">
<ele>315.4498291</ele>
<time>2012-04-06T12:08:46Z</time>
</trkpt>
<trkpt lat="50.2181459" lon="11.0661006">
<ele>314.4884033</ele>
<time>2012-04-06T12:08:50Z</time>
</trkpt>
<trkpt lat="50.2182395" lon="11.0661190">
<ele>314.0078125</ele>
<time>2012-04-06T12:08:53Z</time>
</trkpt>
<trkpt lat="50.2183925" lon="11.0661593">
<ele>313.5272217</ele>
<time>2012-04-06T12:08:58Z</time>
</trkpt>
<trkpt lat="50.2184772" lon="11.0662966">
<ele>312.5657959</ele>
<time>2012-04-06T12:09:02Z</time>
</trkpt>
<trkpt lat="50.2185643" lon="11.0664362">
<ele>313.5272217</ele>
<time>2012-04-06T12:09:06Z</time>
</trkpt>
<trkpt lat="50.2187147" lon="11.0665595">
<ele>314.0078125</ele>
<time>2012-04-06T12:09:12Z</time>
</trkpt>
<trkpt lat="50.2188284" lon="11.0666238">
<ele>316.4110107</ele>
<time>2012-04-06T12:09:16Z</time>
</trkpt>
<trkpt lat="50.2189695" lon="11.0666761">
<ele>318.3336182</ele>
<time>2012-04-06T12:09:21Z</time>
</trkpt>
<trkpt lat="50.2190348" lon="11.0667129">
<ele>318.3336182</ele>
<time>2012-04-06T12:09:23Z</time>
</trkpt>
<trkpt lat="50.2191727" lon="11.0667929">
<ele>317.3724365</ele>
<time>2012-04-06T12:09:28Z</time>
</trkpt>
<trkpt lat="50.2192026" lon="11.0668069">
<ele>317.8530273</ele>
<time>2012-04-06T12:09:29Z</time>
</trkpt>
<trkpt lat="50.2193433" lon="11.0668748">
<ele>317.8530273</ele>
<time>2012-04-06T12:09:34Z</time>
</trkpt>
<trkpt lat="50.2194653" lon="11.0669227">
<ele>316.8917236</ele>
<time>2012-04-06T12:09:38Z</time>
</trkpt>
<trkpt lat="50.2196139" lon="11.0669956">
<ele>317.8530273</ele>
<time>2012-04-06T12:09:43Z</time>
</trkpt>
<trkpt lat="50.2197175" lon="11.0670396">
<ele>318.8143311</ele>
<time>2012-04-06T12:09:47Z</time>
</trkpt>
<trkpt lat="50.2198444" lon="11.0670902">
<ele>320.7370605</ele>
<time>2012-04-06T12:09:51Z</time>
</trkpt>
<trkpt lat="50.2199620" lon="11.0671531">
<ele>320.7370605</ele>
<time>2012-04-06T12:09:55Z</time>
</trkpt>
<trkpt lat="50.2200587" lon="11.0672407">
<ele>318.8143311</ele>
<time>2012-04-06T12:09:59Z</time>
</trkpt>
<trkpt lat="50.2202374" lon="11.0673473">
<ele>318.3336182</ele>
<time>2012-04-06T12:10:05Z</time>
</trkpt>
<trkpt lat="50.2203882" lon="11.0674435">
<ele>317.3724365</ele>
<time>2012-04-06T12:10:10Z</time>
</trkpt>
<trkpt lat="50.2205184" lon="11.0674948">
<ele>318.3336182</ele>
<time>2012-04-06T12:10:15Z</time>
</trkpt>
<trkpt lat="50.2206417" lon="11.0675670">
<ele>316.8917236</ele>
<time>2012-04-06T12:10:20Z</time>
</trkpt>
<trkpt lat="50.2207775" lon="11.0676829">
<ele>318.8143311</ele>
<time>2012-04-06T12:10:25Z</time>
</trkpt>
<trkpt lat="50.2209298" lon="11.0678011">
<ele>317.3724365</ele>
<time>2012-04-06T12:10:30Z</time>
</trkpt>
<trkpt lat="50.2210333" lon="11.0678214">
<ele>317.8530273</ele>
<time>2012-04-06T12:10:34Z</time>
</trkpt>
<trkpt lat="50.2211703" lon="11.0676821">
<ele>319.7756348</ele>
<time>2012-04-06T12:10:39Z</time>
</trkpt>
<trkpt lat="50.2212690" lon="11.0676465">
<ele>320.2563477</ele>
<time>2012-04-06T12:10:44Z</time>
</trkpt>
<trkpt lat="50.2213933" lon="11.0677611">
<ele>316.8917236</ele>
<time>2012-04-06T12:10:49Z</time>
</trkpt>
<trkpt lat="50.2215067" lon="11.0678461">
<ele>314.9691162</ele>
<time>2012-04-06T12:10:53Z</time>
</trkpt>
<trkpt lat="50.2216120" lon="11.0679244">
<ele>311.6044922</ele>
<time>2012-04-06T12:10:57Z</time>
</trkpt>
<trkpt lat="50.2217667" lon="11.0679756">
<ele>310.6430664</ele>
<time>2012-04-06T12:11:02Z</time>
</trkpt>
<trkpt lat="50.2218745" lon="11.0680134">
<ele>311.6044922</ele>
<time>2012-04-06T12:11:06Z</time>
</trkpt>
<trkpt lat="50.2219910" lon="11.0680840">
<ele>312.5657959</ele>
<time>2012-04-06T12:11:10Z</time>
</trkpt>
<trkpt lat="50.2221272" lon="11.0681855">
<ele>312.5657959</ele>
<time>2012-04-06T12:11:15Z</time>
</trkpt>
<trkpt lat="50.2222127" lon="11.0682982">
<ele>313.5272217</ele>
<time>2012-04-06T12:11:19Z</time>
</trkpt>
<trkpt lat="50.2222867" lon="11.0684361">
<ele>313.0465088</ele>
<time>2012-04-06T12:11:25Z</time>
</trkpt>
<trkpt lat="50.2223439" lon="11.0684754">
<ele>313.0465088</ele>
<time>2012-04-06T12:11:31Z</time>
</trkpt>
<trkpt lat="50.2223545" lon="11.0684584">
<ele>313.0465088</ele>
<time>2012-04-06T12:11:32Z</time>
</trkpt>
<trkpt lat="50.2224257" lon="11.0683081">
<ele>312.0852051</ele>
<time>2012-04-06T12:11:37Z</time>
</trkpt>
<trkpt lat="50.2224796" lon="11.0681238">
<ele>313.5272217</ele>
<time>2012-04-06T12:11:42Z</time>
</trkpt>
<trkpt lat="50.2225353" lon="11.0679789">
<ele>315.9304199</ele>
<time>2012-04-06T12:11:46Z</time>
</trkpt>
<trkpt lat="50.2226008" lon="11.0678466">
<ele>318.3336182</ele>
<time>2012-04-06T12:11:50Z</time>
</trkpt>
<trkpt lat="50.2226888" lon="11.0676270">
<ele>319.7756348</ele>
<time>2012-04-06T12:11:56Z</time>
</trkpt>
<trkpt lat="50.2227485" lon="11.0674896">
<ele>319.2950439</ele>
<time>2012-04-06T12:12:00Z</time>
</trkpt>
<trkpt lat="50.2228422" lon="11.0673208">
<ele>320.2563477</ele>
<time>2012-04-06T12:12:05Z</time>
</trkpt>
<trkpt lat="50.2229053" lon="11.0671837">
<ele>320.7370605</ele>
<time>2012-04-06T12:12:09Z</time>
</trkpt>
<trkpt lat="50.2230292" lon="11.0669262">
<ele>322.6596680</ele>
<time>2012-04-06T12:12:17Z</time>
</trkpt>
<trkpt lat="50.2231561" lon="11.0667475">
<ele>323.6209717</ele>
<time>2012-04-06T12:12:23Z</time>
</trkpt>
<trkpt lat="50.2232540" lon="11.0666739">
<ele>323.6209717</ele>
<time>2012-04-06T12:12:27Z</time>
</trkpt>
<trkpt lat="50.2233649" lon="11.0666251">
<ele>323.6209717</ele>
<time>2012-04-06T12:12:31Z</time>
</trkpt>
<trkpt lat="50.2234594" lon="11.0665135">
<ele>324.1015625</ele>
<time>2012-04-06T12:12:35Z</time>
</trkpt>
<trkpt lat="50.2235511" lon="11.0663678">
<ele>326.0241699</ele>
<time>2012-04-06T12:12:40Z</time>
</trkpt>
<trkpt lat="50.2236337" lon="11.0662393">
<ele>326.5048828</ele>
<time>2012-04-06T12:12:44Z</time>
</trkpt>
<trkpt lat="50.2237404" lon="11.0660329">
<ele>327.4661865</ele>
<time>2012-04-06T12:12:50Z</time>
</trkpt>
<trkpt lat="50.2237974" lon="11.0658820">
<ele>327.9467773</ele>
<time>2012-04-06T12:12:54Z</time>
</trkpt>
<trkpt lat="50.2238878" lon="11.0657270">
<ele>328.9083252</ele>
<time>2012-04-06T12:12:59Z</time>
</trkpt>
<trkpt lat="50.2239947" lon="11.0656978">
<ele>329.3889160</ele>
<time>2012-04-06T12:13:03Z</time>
</trkpt>
<trkpt lat="50.2241062" lon="11.0656905">
<ele>329.3889160</ele>
<time>2012-04-06T12:13:07Z</time>
</trkpt>
<trkpt lat="50.2242663" lon="11.0656483">
<ele>328.4276123</ele>
<time>2012-04-06T12:13:12Z</time>
</trkpt>
<trkpt lat="50.2244279" lon="11.0655633">
<ele>329.3889160</ele>
<time>2012-04-06T12:13:18Z</time>
</trkpt>
<trkpt lat="50.2245597" lon="11.0654062">
<ele>329.3889160</ele>
<time>2012-04-06T12:13:24Z</time>
</trkpt>
<trkpt lat="50.2246266" lon="11.0653142">
<ele>328.9083252</ele>
<time>2012-04-06T12:13:27Z</time>
</trkpt>
<trkpt lat="50.2247208" lon="11.0651733">
<ele>328.4276123</ele>
<time>2012-04-06T12:13:32Z</time>
</trkpt>
<trkpt lat="50.2248364" lon="11.0650008">
<ele>330.3502197</ele>
<time>2012-04-06T12:13:38Z</time>
</trkpt>
<trkpt lat="50.2249558" lon="11.0648277">
<ele>331.7921143</ele>
<time>2012-04-06T12:13:44Z</time>
</trkpt>
<trkpt lat="50.2250898" lon="11.0646499">
<ele>332.2728271</ele>
<time>2012-04-06T12:13:50Z</time>
</trkpt>
<trkpt lat="50.2251668" lon="11.0645377">
<ele>332.2728271</ele>
<time>2012-04-06T12:13:54Z</time>
</trkpt>
<trkpt lat="50.2252929" lon="11.0643356">
<ele>331.3115234</ele>
<time>2012-04-06T12:14:00Z</time>
</trkpt>
<trkpt lat="50.2254213" lon="11.0641969">
<ele>329.3889160</ele>
<time>2012-04-06T12:14:05Z</time>
</trkpt>
<trkpt lat="50.2255743" lon="11.0640553">
<ele>326.0241699</ele>
<time>2012-04-06T12:14:11Z</time>
</trkpt>
<trkpt lat="50.2256007" lon="11.0640298">
<ele>326.0241699</ele>
<time>2012-04-06T12:14:12Z</time>
</trkpt>
<trkpt lat="50.2256876" lon="11.0639366">
<ele>325.5435791</ele>
<time>2012-04-06T12:14:16Z</time>
</trkpt>
<trkpt lat="50.2258605" lon="11.0638074">
<ele>320.7370605</ele>
<time>2012-04-06T12:14:22Z</time>
</trkpt>
<trkpt lat="50.2259595" lon="11.0637233">
<ele>317.3724365</ele>
<time>2012-04-06T12:14:26Z</time>
</trkpt>
<trkpt lat="50.2260620" lon="11.0636322">
<ele>316.4110107</ele>
<time>2012-04-06T12:14:30Z</time>
</trkpt>
<trkpt lat="50.2261614" lon="11.0635622">
<ele>315.9304199</ele>
<time>2012-04-06T12:14:33Z</time>
</trkpt>
<trkpt lat="50.2263397" lon="11.0634636">
<ele>315.4498291</ele>
<time>2012-04-06T12:14:39Z</time>
</trkpt>
<trkpt lat="50.2264706" lon="11.0633761">
<ele>315.4498291</ele>
<time>2012-04-06T12:14:43Z</time>
</trkpt>
<trkpt lat="50.2266097" lon="11.0632302">
<ele>314.9691162</ele>
<time>2012-04-06T12:14:49Z</time>
</trkpt>
<trkpt lat="50.2266602" lon="11.0631516">
<ele>317.3724365</ele>
<time>2012-04-06T12:14:53Z</time>
</trkpt>
<trkpt lat="50.2267708" lon="11.0630493">
<ele>320.2563477</ele>
<time>2012-04-06T12:14:58Z</time>
</trkpt>
<trkpt lat="50.2268096" lon="11.0630219">
<ele>319.2950439</ele>
<time>2012-04-06T12:15:00Z</time>
</trkpt>
<trkpt lat="50.2269998" lon="11.0629150">
<ele>317.8530273</ele>
<time>2012-04-06T12:15:06Z</time>
</trkpt>
<trkpt lat="50.2271811" lon="11.0628275">
<ele>317.8530273</ele>
<time>2012-04-06T12:15:12Z</time>
</trkpt>
<trkpt lat="50.2273093" lon="11.0628633">
<ele>317.3724365</ele>
<time>2012-04-06T12:15:16Z</time>
</trkpt>
<trkpt lat="50.2274605" lon="11.0629373">
<ele>316.8917236</ele>
<time>2012-04-06T12:15:21Z</time>
</trkpt>
<trkpt lat="50.2276357" lon="11.0629696">
<ele>321.2177734</ele>
<time>2012-04-06T12:15:27Z</time>
</trkpt>
<trkpt lat="50.2277736" lon="11.0629948">
<ele>324.1015625</ele>
<time>2012-04-06T12:15:32Z</time>
</trkpt>
<trkpt lat="50.2278254" lon="11.0630005">
<ele>325.5435791</ele>
<time>2012-04-06T12:15:34Z</time>
</trkpt>
<trkpt lat="50.2280066" lon="11.0630669">
<ele>323.1403809</ele>
<time>2012-04-06T12:15:40Z</time>
</trkpt>
<trkpt lat="50.2281474" lon="11.0631088">
<ele>323.6209717</ele>
<time>2012-04-06T12:15:45Z</time>
</trkpt>
<trkpt lat="50.2282558" lon="11.0631270">
<ele>324.5822754</ele>
<time>2012-04-06T12:15:49Z</time>
</trkpt>
<trkpt lat="50.2283642" lon="11.0631623">
<ele>325.0629883</ele>
<time>2012-04-06T12:15:53Z</time>
</trkpt>
<trkpt lat="50.2284702" lon="11.0631842">
<ele>326.5048828</ele>
<time>2012-04-06T12:15:57Z</time>
</trkpt>
<trkpt lat="50.2285919" lon="11.0632508">
<ele>328.4276123</ele>
<time>2012-04-06T12:16:02Z</time>
</trkpt>
<trkpt lat="50.2286976" lon="11.0633245">
<ele>327.9467773</ele>
<time>2012-04-06T12:16:06Z</time>
</trkpt>
<trkpt lat="50.2288020" lon="11.0634224">
<ele>328.4276123</ele>
<time>2012-04-06T12:16:11Z</time>
</trkpt>
<trkpt lat="50.2289279" lon="11.0635616">
<ele>325.5435791</ele>
<time>2012-04-06T12:16:16Z</time>
</trkpt>
<trkpt lat="50.2289493" lon="11.0635820">
<ele>325.5435791</ele>
<time>2012-04-06T12:16:17Z</time>
</trkpt>
<trkpt lat="50.2290365" lon="11.0637571">
<ele>325.0629883</ele>
<time>2012-04-06T12:16:22Z</time>
</trkpt>
<trkpt lat="50.2290972" lon="11.0638497">
<ele>325.0629883</ele>
<time>2012-04-06T12:16:25Z</time>
</trkpt>
<trkpt lat="50.2292023" lon="11.0639844">
<ele>324.1015625</ele>
<time>2012-04-06T12:16:30Z</time>
</trkpt>
<trkpt lat="50.2293142" lon="11.0641415">
<ele>323.1403809</ele>
<time>2012-04-06T12:16:35Z</time>
</trkpt>
<trkpt lat="50.2293965" lon="11.0642994">
<ele>321.6983643</ele>
<time>2012-04-06T12:16:40Z</time>
</trkpt>
<trkpt lat="50.2294546" lon="11.0644341">
<ele>318.8143311</ele>
<time>2012-04-06T12:16:44Z</time>
</trkpt>
<trkpt lat="50.2295259" lon="11.0645837">
<ele>315.4498291</ele>
<time>2012-04-06T12:16:48Z</time>
</trkpt>
<trkpt lat="50.2295629" lon="11.0646253">
<ele>314.9691162</ele>
<time>2012-04-06T12:16:50Z</time>
</trkpt>
<trkpt lat="50.2296530" lon="11.0647900">
<ele>313.0465088</ele>
<time>2012-04-06T12:16:55Z</time>
</trkpt>
<trkpt lat="50.2297287" lon="11.0648890">
<ele>312.0852051</ele>
<time>2012-04-06T12:16:59Z</time>
</trkpt>
<trkpt lat="50.2297493" lon="11.0649183">
<ele>312.0852051</ele>
<time>2012-04-06T12:17:00Z</time>
</trkpt>
<trkpt lat="50.2298544" lon="11.0650583">
<ele>312.0852051</ele>
<time>2012-04-06T12:17:05Z</time>
</trkpt>
<trkpt lat="50.2299187" lon="11.0651733">
<ele>313.0465088</ele>
<time>2012-04-06T12:17:09Z</time>
</trkpt>
<trkpt lat="50.2299314" lon="11.0652037">
<ele>312.5657959</ele>
<time>2012-04-06T12:17:10Z</time>
</trkpt>
<trkpt lat="50.2300388" lon="11.0653642">
<ele>314.0078125</ele>
<time>2012-04-06T12:17:16Z</time>
</trkpt>
<trkpt lat="50.2301248" lon="11.0655070">
<ele>317.3724365</ele>
<time>2012-04-06T12:17:21Z</time>
</trkpt>
<trkpt lat="50.2302212" lon="11.0656391">
<ele>318.8143311</ele>
<time>2012-04-06T12:17:26Z</time>
</trkpt>
<trkpt lat="50.2302922" lon="11.0657632">
<ele>319.2950439</ele>
<time>2012-04-06T12:17:30Z</time>
</trkpt>
<trkpt lat="50.2303880" lon="11.0659112">
<ele>319.2950439</ele>
<time>2012-04-06T12:17:35Z</time>
</trkpt>
<trkpt lat="50.2304418" lon="11.0660039">
<ele>320.7370605</ele>
<time>2012-04-06T12:17:38Z</time>
</trkpt>
<trkpt lat="50.2305101" lon="11.0661378">
<ele>322.1789551</ele>
<time>2012-04-06T12:17:42Z</time>
</trkpt>
<trkpt lat="50.2306002" lon="11.0662901">
<ele>323.6209717</ele>
<time>2012-04-06T12:17:47Z</time>
</trkpt>
<trkpt lat="50.2306653" lon="11.0663734">
<ele>325.5435791</ele>
<time>2012-04-06T12:17:50Z</time>
</trkpt>
<trkpt lat="50.2307685" lon="11.0665056">
<ele>327.9467773</ele>
<time>2012-04-06T12:17:55Z</time>
</trkpt>
<trkpt lat="50.2307934" lon="11.0665247">
<ele>328.4276123</ele>
<time>2012-04-06T12:17:56Z</time>
</trkpt>
<trkpt lat="50.2308843" lon="11.0666267">
<ele>330.3502197</ele>
<time>2012-04-06T12:18:00Z</time>
</trkpt>
<trkpt lat="50.2309602" lon="11.0667386">
<ele>331.3115234</ele>
<time>2012-04-06T12:18:04Z</time>
</trkpt>
<trkpt lat="50.2310418" lon="11.0668387">
<ele>333.2341309</ele>
<time>2012-04-06T12:18:08Z</time>
</trkpt>
<trkpt lat="50.2311488" lon="11.0669602">
<ele>333.7147217</ele>
<time>2012-04-06T12:18:13Z</time>
</trkpt>
<trkpt lat="50.2312425" lon="11.0670385">
<ele>335.1567383</ele>
<time>2012-04-06T12:18:17Z</time>
</trkpt>
<trkpt lat="50.2313549" lon="11.0671448">
<ele>336.5988770</ele>
<time>2012-04-06T12:18:22Z</time>
</trkpt>
<trkpt lat="50.2314384" lon="11.0672348">
<ele>338.0407715</ele>
<time>2012-04-06T12:18:26Z</time>
</trkpt>
<trkpt lat="50.2315431" lon="11.0673489">
<ele>339.0020752</ele>
<time>2012-04-06T12:18:31Z</time>
</trkpt>
<trkpt lat="50.2316100" lon="11.0674437">
<ele>341.4052734</ele>
<time>2012-04-06T12:18:35Z</time>
</trkpt>
<trkpt lat="50.2317173" lon="11.0675374">
<ele>344.2894287</ele>
<time>2012-04-06T12:18:40Z</time>
</trkpt>
<trkpt lat="50.2317508" lon="11.0675841">
<ele>345.2506104</ele>
<time>2012-04-06T12:18:42Z</time>
</trkpt>
<trkpt lat="50.2318691" lon="11.0676909">
<ele>348.1346436</ele>
<time>2012-04-06T12:18:48Z</time>
</trkpt>
<trkpt lat="50.2319799" lon="11.0677851">
<ele>350.0572510</ele>
<time>2012-04-06T12:18:54Z</time>
</trkpt>
<trkpt lat="50.2320700" lon="11.0678603">
<ele>351.0184326</ele>
<time>2012-04-06T12:18:59Z</time>
</trkpt>
<trkpt lat="50.2321488" lon="11.0679062">
<ele>351.0184326</ele>
<time>2012-04-06T12:19:03Z</time>
</trkpt>
<trkpt lat="50.2321663" lon="11.0679142">
<ele>351.0184326</ele>
<time>2012-04-06T12:19:04Z</time>
</trkpt>
<trkpt lat="50.2322316" lon="11.0679592">
<ele>351.0184326</ele>
<time>2012-04-06T12:19:08Z</time>
</trkpt>
<trkpt lat="50.2323656" lon="11.0680081">
<ele>351.4991455</ele>
<time>2012-04-06T12:19:14Z</time>
</trkpt>
<trkpt lat="50.2324692" lon="11.0680735">
<ele>351.9798584</ele>
<time>2012-04-06T12:19:19Z</time>
</trkpt>
<trkpt lat="50.2325809" lon="11.0681201">
<ele>353.4218750</ele>
<time>2012-04-06T12:19:24Z</time>
</trkpt>
<trkpt lat="50.2327344" lon="11.0681996">
<ele>355.8251953</ele>
<time>2012-04-06T12:19:31Z</time>
</trkpt>
<trkpt lat="50.2327558" lon="11.0682120">
<ele>356.3057861</ele>
<time>2012-04-06T12:19:32Z</time>
</trkpt>
<trkpt lat="50.2328509" lon="11.0682705">
<ele>356.3057861</ele>
<time>2012-04-06T12:19:37Z</time>
</trkpt>
<trkpt lat="50.2329128" lon="11.0682998">
<ele>356.3057861</ele>
<time>2012-04-06T12:19:40Z</time>
</trkpt>
<trkpt lat="50.2330578" lon="11.0683377">
<ele>355.8251953</ele>
<time>2012-04-06T12:19:46Z</time>
</trkpt>
<trkpt lat="50.2331248" lon="11.0683662">
<ele>355.8251953</ele>
<time>2012-04-06T12:19:49Z</time>
</trkpt>
<trkpt lat="50.2332561" lon="11.0683902">
<ele>357.2670898</ele>
<time>2012-04-06T12:19:54Z</time>
</trkpt>
<trkpt lat="50.2333583" lon="11.0684191">
<ele>359.1896973</ele>
<time>2012-04-06T12:19:58Z</time>
</trkpt>
<trkpt lat="50.2334986" lon="11.0684886">
<ele>362.5543213</ele>
<time>2012-04-06T12:20:04Z</time>
</trkpt>
<trkpt lat="50.2336280" lon="11.0685408">
<ele>364.9576416</ele>
<time>2012-04-06T12:20:09Z</time>
</trkpt>
<trkpt lat="50.2337307" lon="11.0685857">
<ele>366.3995361</ele>
<time>2012-04-06T12:20:13Z</time>
</trkpt>
<trkpt lat="50.2338974" lon="11.0686461">
<ele>367.3609619</ele>
<time>2012-04-06T12:20:19Z</time>
</trkpt>
<trkpt lat="50.2339286" lon="11.0686517">
<ele>367.3609619</ele>
<time>2012-04-06T12:20:20Z</time>
</trkpt>
<trkpt lat="50.2340550" lon="11.0686952">
<ele>367.3609619</ele>
<time>2012-04-06T12:20:25Z</time>
</trkpt>
<trkpt lat="50.2341186" lon="11.0687367">
<ele>365.9189453</ele>
<time>2012-04-06T12:20:28Z</time>
</trkpt>
<trkpt lat="50.2341484" lon="11.0687435">
<ele>365.9189453</ele>
<time>2012-04-06T12:20:29Z</time>
</trkpt>
<trkpt lat="50.2342871" lon="11.0687595">
<ele>364.9576416</ele>
<time>2012-04-06T12:20:34Z</time>
</trkpt>
<trkpt lat="50.2344347" lon="11.0688295">
<ele>365.4383545</ele>
<time>2012-04-06T12:20:39Z</time>
</trkpt>
<trkpt lat="50.2345847" lon="11.0688707">
<ele>365.4383545</ele>
<time>2012-04-06T12:20:44Z</time>
</trkpt>
<trkpt lat="50.2346838" lon="11.0689053">
<ele>365.9189453</ele>
<time>2012-04-06T12:20:48Z</time>
</trkpt>
<trkpt lat="50.2348051" lon="11.0689454">
<ele>364.9576416</ele>
<time>2012-04-06T12:20:54Z</time>
</trkpt>
<trkpt lat="50.2349160" lon="11.0688944">
<ele>363.5157471</ele>
<time>2012-04-06T12:20:59Z</time>
</trkpt>
<trkpt lat="50.2350284" lon="11.0687697">
<ele>364.4769287</ele>
<time>2012-04-06T12:21:04Z</time>
</trkpt>
<trkpt lat="50.2351236" lon="11.0686776">
<ele>364.4769287</ele>
<time>2012-04-06T12:21:08Z</time>
</trkpt>
<trkpt lat="50.2352452" lon="11.0685787">
<ele>365.4383545</ele>
<time>2012-04-06T12:21:13Z</time>
</trkpt>
<trkpt lat="50.2353806" lon="11.0684948">
<ele>366.3995361</ele>
<time>2012-04-06T12:21:18Z</time>
</trkpt>
<trkpt lat="50.2354965" lon="11.0684144">
<ele>364.9576416</ele>
<time>2012-04-06T12:21:22Z</time>
</trkpt>
<trkpt lat="50.2356676" lon="11.0682733">
<ele>362.5543213</ele>
<time>2012-04-06T12:21:28Z</time>
</trkpt>
<trkpt lat="50.2358200" lon="11.0681663">
<ele>362.0737305</ele>
<time>2012-04-06T12:21:33Z</time>
</trkpt>
<trkpt lat="50.2359490" lon="11.0680399">
<ele>364.4769287</ele>
<time>2012-04-06T12:21:39Z</time>
</trkpt>
<trkpt lat="50.2360748" lon="11.0679390">
<ele>366.3995361</ele>
<time>2012-04-06T12:21:44Z</time>
</trkpt>
<trkpt lat="50.2362162" lon="11.0678388">
<ele>367.3609619</ele>
<time>2012-04-06T12:21:50Z</time>
</trkpt>
<trkpt lat="50.2362519" lon="11.0677975">
<ele>366.3995361</ele>
<time>2012-04-06T12:21:52Z</time>
</trkpt>
<trkpt lat="50.2363405" lon="11.0678818">
<ele>363.9963379</ele>
<time>2012-04-06T12:21:57Z</time>
</trkpt>
<trkpt lat="50.2363511" lon="11.0679618">
<ele>363.5157471</ele>
<time>2012-04-06T12:21:59Z</time>
</trkpt>
<trkpt lat="50.2363830" lon="11.0681944">
<ele>363.5157471</ele>
<time>2012-04-06T12:22:05Z</time>
</trkpt>
<trkpt lat="50.2363998" lon="11.0684278">
<ele>363.9963379</ele>
<time>2012-04-06T12:22:10Z</time>
</trkpt>
<trkpt lat="50.2364114" lon="11.0687088">
<ele>363.5157471</ele>
<time>2012-04-06T12:22:16Z</time>
</trkpt>
<trkpt lat="50.2364245" lon="11.0689328">
<ele>363.0350342</ele>
<time>2012-04-06T12:22:21Z</time>
</trkpt>
<trkpt lat="50.2364125" lon="11.0691530">
<ele>363.9963379</ele>
<time>2012-04-06T12:22:26Z</time>
</trkpt>
<trkpt lat="50.2364804" lon="11.0692868">
<ele>365.9189453</ele>
<time>2012-04-06T12:22:31Z</time>
</trkpt>
<trkpt lat="50.2364977" lon="11.0693090">
<ele>366.3995361</ele>
<time>2012-04-06T12:22:32Z</time>
</trkpt>
<trkpt lat="50.2366710" lon="11.0694211">
<ele>367.3609619</ele>
<time>2012-04-06T12:22:40Z</time>
</trkpt>
<trkpt lat="50.2367989" lon="11.0694923">
<ele>367.8415527</ele>
<time>2012-04-06T12:22:46Z</time>
</trkpt>
<trkpt lat="50.2369144" lon="11.0695629">
<ele>367.8415527</ele>
<time>2012-04-06T12:22:52Z</time>
</trkpt>
<trkpt lat="50.2369911" lon="11.0696080">
<ele>368.3222656</ele>
<time>2012-04-06T12:22:56Z</time>
</trkpt>
<trkpt lat="50.2371211" lon="11.0696924">
<ele>368.8029785</ele>
<time>2012-04-06T12:23:03Z</time>
</trkpt>
<trkpt lat="50.2372211" lon="11.0697510">
<ele>369.2836914</ele>
<time>2012-04-06T12:23:08Z</time>
</trkpt>
<trkpt lat="50.2373172" lon="11.0698156">
<ele>370.2448730</ele>
<time>2012-04-06T12:23:13Z</time>
</trkpt>
<trkpt lat="50.2374175" lon="11.0698670">
<ele>371.2062988</ele>
<time>2012-04-06T12:23:18Z</time>
</trkpt>
<trkpt lat="50.2375527" lon="11.0699244">
<ele>372.6481934</ele>
<time>2012-04-06T12:23:25Z</time>
</trkpt>
<trkpt lat="50.2376847" lon="11.0699815">
<ele>373.6094971</ele>
<time>2012-04-06T12:23:32Z</time>
</trkpt>
<trkpt lat="50.2377837" lon="11.0700282">
<ele>373.1289063</ele>
<time>2012-04-06T12:23:37Z</time>
</trkpt>
<trkpt lat="50.2378500" lon="11.0700498">
<ele>373.1289063</ele>
<time>2012-04-06T12:23:40Z</time>
</trkpt>
<trkpt lat="50.2379784" lon="11.0701042">
<ele>373.1289063</ele>
<time>2012-04-06T12:23:46Z</time>
</trkpt>
<trkpt lat="50.2380881" lon="11.0701608">
<ele>373.1289063</ele>
<time>2012-04-06T12:23:51Z</time>
</trkpt>
<trkpt lat="50.2382173" lon="11.0701980">
<ele>373.1289063</ele>
<time>2012-04-06T12:23:56Z</time>
</trkpt>
<trkpt lat="50.2382581" lon="11.0702128">
<ele>373.6094971</ele>
<time>2012-04-06T12:23:58Z</time>
</trkpt>
<trkpt lat="50.2382719" lon="11.0700245">
<ele>373.6094971</ele>
<time>2012-04-06T12:24:03Z</time>
</trkpt>
<trkpt lat="50.2382436" lon="11.0698030">
<ele>374.0900879</ele>
<time>2012-04-06T12:24:08Z</time>
</trkpt>
<trkpt lat="50.2382063" lon="11.0695079">
<ele>373.1289063</ele>
<time>2012-04-06T12:24:14Z</time>
</trkpt>
<trkpt lat="50.2381806" lon="11.0693218">
<ele>373.6094971</ele>
<time>2012-04-06T12:24:18Z</time>
</trkpt>
<trkpt lat="50.2381504" lon="11.0691291">
<ele>373.1289063</ele>
<time>2012-04-06T12:24:22Z</time>
</trkpt>
<trkpt lat="50.2381246" lon="11.0689401">
<ele>371.2062988</ele>
<time>2012-04-06T12:24:26Z</time>
</trkpt>
<trkpt lat="50.2381093" lon="11.0686855">
<ele>368.8029785</ele>
<time>2012-04-06T12:24:31Z</time>
</trkpt>
<trkpt lat="50.2380825" lon="11.0684176">
<ele>365.9189453</ele>
<time>2012-04-06T12:24:37Z</time>
</trkpt>
<trkpt lat="50.2380679" lon="11.0682746">
<ele>363.9963379</ele>
<time>2012-04-06T12:24:40Z</time>
</trkpt>
<trkpt lat="50.2380252" lon="11.0679913">
<ele>361.5931396</ele>
<time>2012-04-06T12:24:46Z</time>
</trkpt>
<trkpt lat="50.2379769" lon="11.0676820">
<ele>358.2283936</ele>
<time>2012-04-06T12:24:52Z</time>
</trkpt>
<trkpt lat="50.2379421" lon="11.0674260">
<ele>356.3057861</ele>
<time>2012-04-06T12:24:57Z</time>
</trkpt>
<trkpt lat="50.2379234" lon="11.0672207">
<ele>355.3444824</ele>
<time>2012-04-06T12:25:01Z</time>
</trkpt>
<trkpt lat="50.2378967" lon="11.0669597">
<ele>354.8637695</ele>
<time>2012-04-06T12:25:06Z</time>
</trkpt>
<trkpt lat="50.2378796" lon="11.0667501">
<ele>352.9411621</ele>
<time>2012-04-06T12:25:10Z</time>
</trkpt>
<trkpt lat="50.2378544" lon="11.0664772">
<ele>349.5765381</ele>
<time>2012-04-06T12:25:16Z</time>
</trkpt>
<trkpt lat="50.2378345" lon="11.0663316">
<ele>347.6539307</ele>
<time>2012-04-06T12:25:19Z</time>
</trkpt>
<trkpt lat="50.2378040" lon="11.0661084">
<ele>345.2506104</ele>
<time>2012-04-06T12:25:24Z</time>
</trkpt>
<trkpt lat="50.2377769" lon="11.0658799">
<ele>344.2894287</ele>
<time>2012-04-06T12:25:29Z</time>
</trkpt>
<trkpt lat="50.2377505" lon="11.0656876">
<ele>342.8472900</ele>
<time>2012-04-06T12:25:33Z</time>
</trkpt>
<trkpt lat="50.2377394" lon="11.0654810">
<ele>341.8859863</ele>
<time>2012-04-06T12:25:37Z</time>
</trkpt>
<trkpt lat="50.2377084" lon="11.0652679">
<ele>340.9246826</ele>
<time>2012-04-06T12:25:41Z</time>
</trkpt>
<trkpt lat="50.2376895" lon="11.0651303">
<ele>339.9633789</ele>
<time>2012-04-06T12:25:44Z</time>
</trkpt>
<trkpt lat="50.2377070" lon="11.0649265">
<ele>339.9633789</ele>
<time>2012-04-06T12:25:49Z</time>
</trkpt>
<trkpt lat="50.2377473" lon="11.0648553">
<ele>340.4440918</ele>
<time>2012-04-06T12:25:51Z</time>
</trkpt>
<trkpt lat="50.2379016" lon="11.0646496">
<ele>339.9633789</ele>
<time>2012-04-06T12:25:57Z</time>
</trkpt>
<trkpt lat="50.2379991" lon="11.0645080">
<ele>339.4826660</ele>
<time>2012-04-06T12:26:01Z</time>
</trkpt>
<trkpt lat="50.2380718" lon="11.0643993">
<ele>339.0020752</ele>
<time>2012-04-06T12:26:04Z</time>
</trkpt>
<trkpt lat="50.2381699" lon="11.0642526">
<ele>337.5600586</ele>
<time>2012-04-06T12:26:08Z</time>
</trkpt>
<trkpt lat="50.2382990" lon="11.0640900">
<ele>337.5600586</ele>
<time>2012-04-06T12:26:13Z</time>
</trkpt>
<trkpt lat="50.2383923" lon="11.0639562">
<ele>337.5600586</ele>
<time>2012-04-06T12:26:17Z</time>
</trkpt>
<trkpt lat="50.2385089" lon="11.0637886">
<ele>338.0407715</ele>
<time>2012-04-06T12:26:22Z</time>
</trkpt>
<trkpt lat="50.2385812" lon="11.0637017">
<ele>336.1181641</ele>
<time>2012-04-06T12:26:25Z</time>
</trkpt>
<trkpt lat="50.2386902" lon="11.0636020">
<ele>335.1567383</ele>
<time>2012-04-06T12:26:29Z</time>
</trkpt>
<trkpt lat="50.2388109" lon="11.0635338">
<ele>335.1567383</ele>
<time>2012-04-06T12:26:33Z</time>
</trkpt>
<trkpt lat="50.2389332" lon="11.0634710">
<ele>335.1567383</ele>
<time>2012-04-06T12:26:37Z</time>
</trkpt>
<trkpt lat="50.2390631" lon="11.0634103">
<ele>338.0407715</ele>
<time>2012-04-06T12:26:41Z</time>
</trkpt>
<trkpt lat="50.2391610" lon="11.0633438">
<ele>339.4826660</ele>
<time>2012-04-06T12:26:45Z</time>
</trkpt>
<trkpt lat="50.2392758" lon="11.0632424">
<ele>342.3666992</ele>
<time>2012-04-06T12:26:50Z</time>
</trkpt>
<trkpt lat="50.2392556" lon="11.0630359">
<ele>343.3278809</ele>
<time>2012-04-06T12:26:55Z</time>
</trkpt>
<trkpt lat="50.2392404" lon="11.0629872">
<ele>343.3278809</ele>
<time>2012-04-06T12:26:56Z</time>
</trkpt>
<trkpt lat="50.2391728" lon="11.0627467">
<ele>343.8085938</ele>
<time>2012-04-06T12:27:01Z</time>
</trkpt>
<trkpt lat="50.2391015" lon="11.0625029">
<ele>342.8472900</ele>
<time>2012-04-06T12:27:06Z</time>
</trkpt>
<trkpt lat="50.2390802" lon="11.0623650">
<ele>341.4052734</ele>
<time>2012-04-06T12:27:09Z</time>
</trkpt>
<trkpt lat="50.2390083" lon="11.0621356">
<ele>340.4440918</ele>
<time>2012-04-06T12:27:14Z</time>
</trkpt>
<trkpt lat="50.2389591" lon="11.0619020">
<ele>339.0020752</ele>
<time>2012-04-06T12:27:19Z</time>
</trkpt>
<trkpt lat="50.2389221" lon="11.0617249">
<ele>338.0407715</ele>
<time>2012-04-06T12:27:23Z</time>
</trkpt>
<trkpt lat="50.2388699" lon="11.0615239">
<ele>336.1181641</ele>
<time>2012-04-06T12:27:28Z</time>
</trkpt>
<trkpt lat="50.2388260" lon="11.0613176">
<ele>333.2341309</ele>
<time>2012-04-06T12:27:33Z</time>
</trkpt>
<trkpt lat="50.2387829" lon="11.0611052">
<ele>329.8695068</ele>
<time>2012-04-06T12:27:38Z</time>
</trkpt>
<trkpt lat="50.2387260" lon="11.0608980">
<ele>328.9083252</ele>
<time>2012-04-06T12:27:43Z</time>
</trkpt>
<trkpt lat="50.2386734" lon="11.0606832">
<ele>327.9467773</ele>
<time>2012-04-06T12:27:48Z</time>
</trkpt>
<trkpt lat="50.2385478" lon="11.0605328">
<ele>326.9855957</ele>
<time>2012-04-06T12:27:53Z</time>
</trkpt>
<trkpt lat="50.2384108" lon="11.0603897">
<ele>326.5048828</ele>
<time>2012-04-06T12:27:58Z</time>
</trkpt>
<trkpt lat="50.2382999" lon="11.0602910">
<ele>326.5048828</ele>
<time>2012-04-06T12:28:02Z</time>
</trkpt>
<trkpt lat="50.2381982" lon="11.0601694">
<ele>326.0241699</ele>
<time>2012-04-06T12:28:06Z</time>
</trkpt>
<trkpt lat="50.2380639" lon="11.0600587">
<ele>324.5822754</ele>
<time>2012-04-06T12:28:11Z</time>
</trkpt>
<trkpt lat="50.2379228" lon="11.0599484">
<ele>325.5435791</ele>
<time>2012-04-06T12:28:16Z</time>
</trkpt>
<trkpt lat="50.2377977" lon="11.0598866">
<ele>325.5435791</ele>
<time>2012-04-06T12:28:20Z</time>
</trkpt>
<trkpt lat="50.2377116" lon="11.0598054">
<ele>325.5435791</ele>
<time>2012-04-06T12:28:24Z</time>
</trkpt>
<trkpt lat="50.2376102" lon="11.0596590">
<ele>322.6596680</ele>
<time>2012-04-06T12:28:29Z</time>
</trkpt>
<trkpt lat="50.2375157" lon="11.0595060">
<ele>322.6596680</ele>
<time>2012-04-06T12:28:33Z</time>
</trkpt>
<trkpt lat="50.2373945" lon="11.0592999">
<ele>323.1403809</ele>
<time>2012-04-06T12:28:38Z</time>
</trkpt>
<trkpt lat="50.2373100" lon="11.0591307">
<ele>323.6209717</ele>
<time>2012-04-06T12:28:42Z</time>
</trkpt>
<trkpt lat="50.2372359" lon="11.0588863">
<ele>322.6596680</ele>
<time>2012-04-06T12:28:47Z</time>
</trkpt>
<trkpt lat="50.2371916" lon="11.0586732">
<ele>323.1403809</ele>
<time>2012-04-06T12:28:51Z</time>
</trkpt>
<trkpt lat="50.2371264" lon="11.0583446">
<ele>322.6596680</ele>
<time>2012-04-06T12:28:57Z</time>
</trkpt>
<trkpt lat="50.2370636" lon="11.0580719">
<ele>320.7370605</ele>
<time>2012-04-06T12:29:02Z</time>
</trkpt>
<trkpt lat="50.2369999" lon="11.0578910">
<ele>318.8143311</ele>
<time>2012-04-06T12:29:06Z</time>
</trkpt>
<trkpt lat="50.2369169" lon="11.0576034">
<ele>314.4884033</ele>
<time>2012-04-06T12:29:12Z</time>
</trkpt>
<trkpt lat="50.2368524" lon="11.0574000">
<ele>311.1237793</ele>
<time>2012-04-06T12:29:17Z</time>
</trkpt>
<trkpt lat="50.2367786" lon="11.0571770">
<ele>308.7204590</ele>
<time>2012-04-06T12:29:22Z</time>
</trkpt>
<trkpt lat="50.2367143" lon="11.0570211">
<ele>307.2785645</ele>
<time>2012-04-06T12:29:26Z</time>
</trkpt>
<trkpt lat="50.2366408" lon="11.0568438">
<ele>306.7978516</ele>
<time>2012-04-06T12:29:30Z</time>
</trkpt>
<trkpt lat="50.2365542" lon="11.0566547">
<ele>305.8366699</ele>
<time>2012-04-06T12:29:35Z</time>
</trkpt>
<trkpt lat="50.2364885" lon="11.0565001">
<ele>306.3172607</ele>
<time>2012-04-06T12:29:39Z</time>
</trkpt>
<trkpt lat="50.2364009" lon="11.0563021">
<ele>305.3559570</ele>
<time>2012-04-06T12:29:44Z</time>
</trkpt>
<trkpt lat="50.2363021" lon="11.0560923">
<ele>306.7978516</ele>
<time>2012-04-06T12:29:49Z</time>
</trkpt>
<trkpt lat="50.2362325" lon="11.0559373">
<ele>306.7978516</ele>
<time>2012-04-06T12:29:53Z</time>
</trkpt>
<trkpt lat="50.2361643" lon="11.0557769">
<ele>306.3172607</ele>
<time>2012-04-06T12:29:57Z</time>
</trkpt>
<trkpt lat="50.2360787" lon="11.0555967">
<ele>306.3172607</ele>
<time>2012-04-06T12:30:02Z</time>
</trkpt>
<trkpt lat="50.2359976" lon="11.0554399">
<ele>307.2785645</ele>
<time>2012-04-06T12:30:06Z</time>
</trkpt>
<trkpt lat="50.2359178" lon="11.0552808">
<ele>308.7204590</ele>
<time>2012-04-06T12:30:10Z</time>
</trkpt>
<trkpt lat="50.2358370" lon="11.0551354">
<ele>309.6818848</ele>
<time>2012-04-06T12:30:14Z</time>
</trkpt>
<trkpt lat="50.2357560" lon="11.0548928">
<ele>310.1624756</ele>
<time>2012-04-06T12:30:20Z</time>
</trkpt>
<trkpt lat="50.2357986" lon="11.0547493">
<ele>314.0078125</ele>
<time>2012-04-06T12:30:24Z</time>
</trkpt>
<trkpt lat="50.2358717" lon="11.0546718">
<ele>315.4498291</ele>
<time>2012-04-06T12:30:27Z</time>
</trkpt>
<trkpt lat="50.2359569" lon="11.0545939">
<ele>316.8917236</ele>
<time>2012-04-06T12:30:30Z</time>
</trkpt>
<trkpt lat="50.2361203" lon="11.0544307">
<ele>317.8530273</ele>
<time>2012-04-06T12:30:36Z</time>
</trkpt>
<trkpt lat="50.2362503" lon="11.0542948">
<ele>318.3336182</ele>
<time>2012-04-06T12:30:41Z</time>
</trkpt>
<trkpt lat="50.2363223" lon="11.0542168">
<ele>318.8143311</ele>
<time>2012-04-06T12:30:44Z</time>
</trkpt>
<trkpt lat="50.2363840" lon="11.0541741">
<ele>319.2950439</ele>
<time>2012-04-06T12:30:46Z</time>
</trkpt>
<trkpt lat="50.2365110" lon="11.0540588">
<ele>320.7370605</ele>
<time>2012-04-06T12:30:51Z</time>
</trkpt>
<trkpt lat="50.2366140" lon="11.0539783">
<ele>322.1789551</ele>
<time>2012-04-06T12:30:55Z</time>
</trkpt>
<trkpt lat="50.2367739" lon="11.0538343">
<ele>322.6596680</ele>
<time>2012-04-06T12:31:01Z</time>
</trkpt>
<trkpt lat="50.2369040" lon="11.0537538">
<ele>323.1403809</ele>
<time>2012-04-06T12:31:06Z</time>
</trkpt>
<trkpt lat="50.2370356" lon="11.0536708">
<ele>324.5822754</ele>
<time>2012-04-06T12:31:11Z</time>
</trkpt>
<trkpt lat="50.2371118" lon="11.0536233">
<ele>324.1015625</ele>
<time>2012-04-06T12:31:14Z</time>
</trkpt>
<trkpt lat="50.2372403" lon="11.0535636">
<ele>326.0241699</ele>
<time>2012-04-06T12:31:19Z</time>
</trkpt>
<trkpt lat="50.2373453" lon="11.0535148">
<ele>326.9855957</ele>
<time>2012-04-06T12:31:23Z</time>
</trkpt>
<trkpt lat="50.2373646" lon="11.0535065">
<ele>326.9855957</ele>
<time>2012-04-06T12:31:24Z</time>
</trkpt>
<trkpt lat="50.2375116" lon="11.0534459">
<ele>325.0629883</ele>
<time>2012-04-06T12:31:29Z</time>
</trkpt>
<trkpt lat="50.2376013" lon="11.0534068">
<ele>324.5822754</ele>
<time>2012-04-06T12:31:32Z</time>
</trkpt>
<trkpt lat="50.2377785" lon="11.0533512">
<ele>323.1403809</ele>
<time>2012-04-06T12:31:38Z</time>
</trkpt>
<trkpt lat="50.2378772" lon="11.0533227">
<ele>323.6209717</ele>
<time>2012-04-06T12:31:41Z</time>
</trkpt>
<trkpt lat="50.2380043" lon="11.0532933">
<ele>324.1015625</ele>
<time>2012-04-06T12:31:45Z</time>
</trkpt>
<trkpt lat="50.2381150" lon="11.0532687">
<ele>322.6596680</ele>
<time>2012-04-06T12:31:49Z</time>
</trkpt>
<trkpt lat="50.2382162" lon="11.0532501">
<ele>319.7756348</ele>
<time>2012-04-06T12:31:53Z</time>
</trkpt>
<trkpt lat="50.2383653" lon="11.0531907">
<ele>317.8530273</ele>
<time>2012-04-06T12:31:57Z</time>
</trkpt>
<trkpt lat="50.2384933" lon="11.0531352">
<ele>316.4110107</ele>
<time>2012-04-06T12:32:01Z</time>
</trkpt>
<trkpt lat="50.2386069" lon="11.0531119">
<ele>317.8530273</ele>
<time>2012-04-06T12:32:05Z</time>
</trkpt>
<trkpt lat="50.2387346" lon="11.0530875">
<ele>318.8143311</ele>
<time>2012-04-06T12:32:09Z</time>
</trkpt>
<trkpt lat="50.2388444" lon="11.0530710">
<ele>318.3336182</ele>
<time>2012-04-06T12:32:13Z</time>
</trkpt>
<trkpt lat="50.2389786" lon="11.0530257">
<ele>318.3336182</ele>
<time>2012-04-06T12:32:18Z</time>
</trkpt>
<trkpt lat="50.2391150" lon="11.0529864">
<ele>317.8530273</ele>
<time>2012-04-06T12:32:23Z</time>
</trkpt>
<trkpt lat="50.2391994" lon="11.0529607">
<ele>317.3724365</ele>
<time>2012-04-06T12:32:26Z</time>
</trkpt>
<trkpt lat="50.2393105" lon="11.0529029">
<ele>317.3724365</ele>
<time>2012-04-06T12:32:30Z</time>
</trkpt>
<trkpt lat="50.2393575" lon="11.0528933">
<ele>317.8530273</ele>
<time>2012-04-06T12:32:32Z</time>
</trkpt>
<trkpt lat="50.2395117" lon="11.0528643">
<ele>318.3336182</ele>
<time>2012-04-06T12:32:37Z</time>
</trkpt>
<trkpt lat="50.2395748" lon="11.0528555">
<ele>318.3336182</ele>
<time>2012-04-06T12:32:39Z</time>
</trkpt>
<trkpt lat="50.2397557" lon="11.0528114">
<ele>316.4110107</ele>
<time>2012-04-06T12:32:45Z</time>
</trkpt>
<trkpt lat="50.2398898" lon="11.0527597">
<ele>314.0078125</ele>
<time>2012-04-06T12:32:50Z</time>
</trkpt>
<trkpt lat="50.2399483" lon="11.0527519">
<ele>312.0852051</ele>
<time>2012-04-06T12:32:53Z</time>
</trkpt>
<trkpt lat="50.2401147" lon="11.0527141">
<ele>310.6430664</ele>
<time>2012-04-06T12:32:58Z</time>
</trkpt>
<trkpt lat="50.2402321" lon="11.0526901">
<ele>310.6430664</ele>
<time>2012-04-06T12:33:02Z</time>
</trkpt>
<trkpt lat="50.2403892" lon="11.0526355">
<ele>310.6430664</ele>
<time>2012-04-06T12:33:07Z</time>
</trkpt>
<trkpt lat="50.2405120" lon="11.0525875">
<ele>311.6044922</ele>
<time>2012-04-06T12:33:11Z</time>
</trkpt>
<trkpt lat="50.2406757" lon="11.0525587">
<ele>312.0852051</ele>
<time>2012-04-06T12:33:16Z</time>
</trkpt>
<trkpt lat="50.2408304" lon="11.0525446">
<ele>314.4884033</ele>
<time>2012-04-06T12:33:21Z</time>
</trkpt>
<trkpt lat="50.2409808" lon="11.0525175">
<ele>315.4498291</ele>
<time>2012-04-06T12:33:26Z</time>
</trkpt>
<trkpt lat="50.2411417" lon="11.0524771">
<ele>314.4884033</ele>
<time>2012-04-06T12:33:31Z</time>
</trkpt>
<trkpt lat="50.2413061" lon="11.0524390">
<ele>314.0078125</ele>
<time>2012-04-06T12:33:36Z</time>
</trkpt>
<trkpt lat="50.2414470" lon="11.0523820">
<ele>314.0078125</ele>
<time>2012-04-06T12:33:41Z</time>
</trkpt>
<trkpt lat="50.2415496" lon="11.0523188">
<ele>314.0078125</ele>
<time>2012-04-06T12:33:45Z</time>
</trkpt>
<trkpt lat="50.2416388" lon="11.0522831">
<ele>314.9691162</ele>
<time>2012-04-06T12:33:48Z</time>
</trkpt>
<trkpt lat="50.2417760" lon="11.0522297">
<ele>314.0078125</ele>
<time>2012-04-06T12:33:53Z</time>
</trkpt>
<trkpt lat="50.2418375" lon="11.0522215">
<ele>314.0078125</ele>
<time>2012-04-06T12:33:55Z</time>
</trkpt>
<trkpt lat="50.2419790" lon="11.0521834">
<ele>314.9691162</ele>
<time>2012-04-06T12:34:00Z</time>
</trkpt>
<trkpt lat="50.2421308" lon="11.0521417">
<ele>316.4110107</ele>
<time>2012-04-06T12:34:05Z</time>
</trkpt>
<trkpt lat="50.2422696" lon="11.0520966">
<ele>318.8143311</ele>
<time>2012-04-06T12:34:10Z</time>
</trkpt>
<trkpt lat="50.2423157" lon="11.0520816">
<ele>319.2950439</ele>
<time>2012-04-06T12:34:12Z</time>
</trkpt>
<trkpt lat="50.2424456" lon="11.0520258">
<ele>318.8143311</ele>
<time>2012-04-06T12:34:17Z</time>
</trkpt>
<trkpt lat="50.2425545" lon="11.0519893">
<ele>318.3336182</ele>
<time>2012-04-06T12:34:21Z</time>
</trkpt>
<trkpt lat="50.2426579" lon="11.0519622">
<ele>318.8143311</ele>
<time>2012-04-06T12:34:25Z</time>
</trkpt>
<trkpt lat="50.2427451" lon="11.0519116">
<ele>317.8530273</ele>
<time>2012-04-06T12:34:28Z</time>
</trkpt>
<trkpt lat="50.2427932" lon="11.0517190">
<ele>318.8143311</ele>
<time>2012-04-06T12:34:33Z</time>
</trkpt>
<trkpt lat="50.2428178" lon="11.0515419">
<ele>319.2950439</ele>
<time>2012-04-06T12:34:37Z</time>
</trkpt>
<trkpt lat="50.2428602" lon="11.0513844">
<ele>319.2950439</ele>
<time>2012-04-06T12:34:41Z</time>
</trkpt>
<trkpt lat="50.2429114" lon="11.0513282">
<ele>319.7756348</ele>
<time>2012-04-06T12:34:44Z</time>
</trkpt>
<trkpt lat="50.2430363" lon="11.0512616">
<ele>321.6983643</ele>
<time>2012-04-06T12:34:49Z</time>
</trkpt>
<trkpt lat="50.2430970" lon="11.0512346">
<ele>321.6983643</ele>
<time>2012-04-06T12:34:51Z</time>
</trkpt>
<trkpt lat="50.2432796" lon="11.0511790">
<ele>322.1789551</ele>
<time>2012-04-06T12:34:57Z</time>
</trkpt>
<trkpt lat="50.2433954" lon="11.0511227">
<ele>322.6596680</ele>
<time>2012-04-06T12:35:01Z</time>
</trkpt>
<trkpt lat="50.2435015" lon="11.0510700">
<ele>323.6209717</ele>
<time>2012-04-06T12:35:05Z</time>
</trkpt>
<trkpt lat="50.2436214" lon="11.0510025">
<ele>323.6209717</ele>
<time>2012-04-06T12:35:10Z</time>
</trkpt>
<trkpt lat="50.2437299" lon="11.0509419">
<ele>322.6596680</ele>
<time>2012-04-06T12:35:14Z</time>
</trkpt>
<trkpt lat="50.2438102" lon="11.0508765">
<ele>321.2177734</ele>
<time>2012-04-06T12:35:17Z</time>
</trkpt>
<trkpt lat="50.2439039" lon="11.0507387">
<ele>320.2563477</ele>
<time>2012-04-06T12:35:22Z</time>
</trkpt>
<trkpt lat="50.2440448" lon="11.0505711">
<ele>317.8530273</ele>
<time>2012-04-06T12:35:28Z</time>
</trkpt>
<trkpt lat="50.2441821" lon="11.0504549">
<ele>318.3336182</ele>
<time>2012-04-06T12:35:33Z</time>
</trkpt>
<trkpt lat="50.2443406" lon="11.0503597">
<ele>318.8143311</ele>
<time>2012-04-06T12:35:39Z</time>
</trkpt>
<trkpt lat="50.2444462" lon="11.0502841">
<ele>318.8143311</ele>
<time>2012-04-06T12:35:43Z</time>
</trkpt>
<trkpt lat="50.2445813" lon="11.0502049">
<ele>318.8143311</ele>
<time>2012-04-06T12:35:48Z</time>
</trkpt>
<trkpt lat="50.2446134" lon="11.0501892">
<ele>318.8143311</ele>
<time>2012-04-06T12:35:49Z</time>
</trkpt>
<trkpt lat="50.2448312" lon="11.0501120">
<ele>320.7370605</ele>
<time>2012-04-06T12:35:56Z</time>
</trkpt>
<trkpt lat="50.2449564" lon="11.0501102">
<ele>320.7370605</ele>
<time>2012-04-06T12:36:01Z</time>
</trkpt>
<trkpt lat="50.2450450" lon="11.0501116">
<ele>321.6983643</ele>
<time>2012-04-06T12:36:04Z</time>
</trkpt>
<trkpt lat="50.2451555" lon="11.0501251">
<ele>322.6596680</ele>
<time>2012-04-06T12:36:08Z</time>
</trkpt>
<trkpt lat="50.2452939" lon="11.0501380">
<ele>324.5822754</ele>
<time>2012-04-06T12:36:13Z</time>
</trkpt>
<trkpt lat="50.2453958" lon="11.0501541">
<ele>325.5435791</ele>
<time>2012-04-06T12:36:17Z</time>
</trkpt>
<trkpt lat="50.2455320" lon="11.0501867">
<ele>326.0241699</ele>
<time>2012-04-06T12:36:22Z</time>
</trkpt>
<trkpt lat="50.2456367" lon="11.0502276">
<ele>325.5435791</ele>
<time>2012-04-06T12:36:26Z</time>
</trkpt>
<trkpt lat="50.2457568" lon="11.0502519">
<ele>324.1015625</ele>
<time>2012-04-06T12:36:30Z</time>
</trkpt>
<trkpt lat="50.2458604" lon="11.0502824">
<ele>325.0629883</ele>
<time>2012-04-06T12:36:34Z</time>
</trkpt>
<trkpt lat="50.2459801" lon="11.0503458">
<ele>326.9855957</ele>
<time>2012-04-06T12:36:39Z</time>
</trkpt>
<trkpt lat="50.2461248" lon="11.0504065">
<ele>328.4276123</ele>
<time>2012-04-06T12:36:45Z</time>
</trkpt>
<trkpt lat="50.2462992" lon="11.0504695">
<ele>330.3502197</ele>
<time>2012-04-06T12:36:52Z</time>
</trkpt>
<trkpt lat="50.2463742" lon="11.0505030">
<ele>330.8309326</ele>
<time>2012-04-06T12:36:55Z</time>
</trkpt>
<trkpt lat="50.2464955" lon="11.0505603">
<ele>331.3115234</ele>
<time>2012-04-06T12:37:00Z</time>
</trkpt>
<trkpt lat="50.2465225" lon="11.0505689">
<ele>331.3115234</ele>
<time>2012-04-06T12:37:01Z</time>
</trkpt>
<trkpt lat="50.2466638" lon="11.0506177">
<ele>333.7147217</ele>
<time>2012-04-06T12:37:07Z</time>
</trkpt>
<trkpt lat="50.2468068" lon="11.0506808">
<ele>335.1567383</ele>
<time>2012-04-06T12:37:13Z</time>
</trkpt>
<trkpt lat="50.2469134" lon="11.0507436">
<ele>338.0407715</ele>
<time>2012-04-06T12:37:18Z</time>
</trkpt>
<trkpt lat="50.2470429" lon="11.0508092">
<ele>339.9633789</ele>
<time>2012-04-06T12:37:24Z</time>
</trkpt>
<trkpt lat="50.2471938" lon="11.0508917">
<ele>342.3666992</ele>
<time>2012-04-06T12:37:31Z</time>
</trkpt>
<trkpt lat="50.2472586" lon="11.0509322">
<ele>343.8085938</ele>
<time>2012-04-06T12:37:34Z</time>
</trkpt>
<trkpt lat="50.2473725" lon="11.0510764">
<ele>344.7700195</ele>
<time>2012-04-06T12:37:41Z</time>
</trkpt>
<trkpt lat="50.2474930" lon="11.0510481">
<ele>342.8472900</ele>
<time>2012-04-06T12:37:46Z</time>
</trkpt>
<trkpt lat="50.2475103" lon="11.0510189">
<ele>342.3666992</ele>
<time>2012-04-06T12:37:47Z</time>
</trkpt>
<trkpt lat="50.2474984" lon="11.0508192">
<ele>339.0020752</ele>
<time>2012-04-06T12:37:52Z</time>
</trkpt>
<trkpt lat="50.2474580" lon="11.0506408">
<ele>338.5214844</ele>
<time>2012-04-06T12:37:56Z</time>
</trkpt>
<trkpt lat="50.2473993" lon="11.0504587">
<ele>339.0020752</ele>
<time>2012-04-06T12:38:00Z</time>
</trkpt>
<trkpt lat="50.2473574" lon="11.0502982">
<ele>339.0020752</ele>
<time>2012-04-06T12:38:03Z</time>
</trkpt>
<trkpt lat="50.2472990" lon="11.0500707">
<ele>338.0407715</ele>
<time>2012-04-06T12:38:08Z</time>
</trkpt>
<trkpt lat="50.2472392" lon="11.0499006">
<ele>337.0794678</ele>
<time>2012-04-06T12:38:12Z</time>
</trkpt>
<trkpt lat="50.2471636" lon="11.0496822">
<ele>334.6761475</ele>
<time>2012-04-06T12:38:17Z</time>
</trkpt>
<trkpt lat="50.2471052" lon="11.0495154">
<ele>332.2728271</ele>
<time>2012-04-06T12:38:21Z</time>
</trkpt>
<trkpt lat="50.2470548" lon="11.0493028">
<ele>330.3502197</ele>
<time>2012-04-06T12:38:26Z</time>
</trkpt>
<trkpt lat="50.2470424" lon="11.0492605">
<ele>329.8695068</ele>
<time>2012-04-06T12:38:27Z</time>
</trkpt>
<trkpt lat="50.2470092" lon="11.0490812">
<ele>327.9467773</ele>
<time>2012-04-06T12:38:31Z</time>
</trkpt>
<trkpt lat="50.2469908" lon="11.0489310">
<ele>324.5822754</ele>
<time>2012-04-06T12:38:35Z</time>
</trkpt>
<trkpt lat="50.2469667" lon="11.0487150">
<ele>321.6983643</ele>
<time>2012-04-06T12:38:40Z</time>
</trkpt>
<trkpt lat="50.2469618" lon="11.0485431">
<ele>320.7370605</ele>
<time>2012-04-06T12:38:44Z</time>
</trkpt>
<trkpt lat="50.2469740" lon="11.0482606">
<ele>318.3336182</ele>
<time>2012-04-06T12:38:50Z</time>
</trkpt>
<trkpt lat="50.2469743" lon="11.0481323">
<ele>317.3724365</ele>
<time>2012-04-06T12:38:53Z</time>
</trkpt>
<trkpt lat="50.2469731" lon="11.0479083">
<ele>316.4110107</ele>
<time>2012-04-06T12:38:58Z</time>
</trkpt>
<trkpt lat="50.2469735" lon="11.0476422">
<ele>317.8530273</ele>
<time>2012-04-06T12:39:04Z</time>
</trkpt>
<trkpt lat="50.2469571" lon="11.0474647">
<ele>319.7756348</ele>
<time>2012-04-06T12:39:08Z</time>
</trkpt>
<trkpt lat="50.2469031" lon="11.0472983">
<ele>321.6983643</ele>
<time>2012-04-06T12:39:12Z</time>
</trkpt>
<trkpt lat="50.2468302" lon="11.0471245">
<ele>323.1403809</ele>
<time>2012-04-06T12:39:16Z</time>
</trkpt>
<trkpt lat="50.2467492" lon="11.0469800">
<ele>324.5822754</ele>
<time>2012-04-06T12:39:20Z</time>
</trkpt>
<trkpt lat="50.2466661" lon="11.0468269">
<ele>325.0629883</ele>
<time>2012-04-06T12:39:24Z</time>
</trkpt>
<trkpt lat="50.2465593" lon="11.0466633">
<ele>325.5435791</ele>
<time>2012-04-06T12:39:29Z</time>
</trkpt>
<trkpt lat="50.2464437" lon="11.0465025">
<ele>324.5822754</ele>
<time>2012-04-06T12:39:34Z</time>
</trkpt>
<trkpt lat="50.2463578" lon="11.0463665">
<ele>324.1015625</ele>
<time>2012-04-06T12:39:38Z</time>
</trkpt>
<trkpt lat="50.2462308" lon="11.0462436">
<ele>324.5822754</ele>
<time>2012-04-06T12:39:43Z</time>
</trkpt>
<trkpt lat="50.2461433" lon="11.0461785">
<ele>325.5435791</ele>
<time>2012-04-06T12:39:46Z</time>
</trkpt>
<trkpt lat="50.2460084" lon="11.0460649">
<ele>326.9855957</ele>
<time>2012-04-06T12:39:51Z</time>
</trkpt>
<trkpt lat="50.2458776" lon="11.0459542">
<ele>329.8695068</ele>
<time>2012-04-06T12:39:56Z</time>
</trkpt>
<trkpt lat="50.2456968" lon="11.0457898">
<ele>331.7921143</ele>
<time>2012-04-06T12:40:03Z</time>
</trkpt>
<trkpt lat="50.2455728" lon="11.0456888">
<ele>333.7147217</ele>
<time>2012-04-06T12:40:08Z</time>
</trkpt>
<trkpt lat="50.2454771" lon="11.0456018">
<ele>335.6373291</ele>
<time>2012-04-06T12:40:12Z</time>
</trkpt>
<trkpt lat="50.2453409" lon="11.0454706">
<ele>341.4052734</ele>
<time>2012-04-06T12:40:17Z</time>
</trkpt>
<trkpt lat="50.2452123" lon="11.0453043">
<ele>345.7313232</ele>
<time>2012-04-06T12:40:23Z</time>
</trkpt>
<trkpt lat="50.2451046" lon="11.0451518">
<ele>348.6152344</ele>
<time>2012-04-06T12:40:28Z</time>
</trkpt>
<trkpt lat="50.2450239" lon="11.0450242">
<ele>350.0572510</ele>
<time>2012-04-06T12:40:32Z</time>
</trkpt>
<trkpt lat="50.2449569" lon="11.0448827">
<ele>351.4991455</ele>
<time>2012-04-06T12:40:36Z</time>
</trkpt>
<trkpt lat="50.2448869" lon="11.0446923">
<ele>351.9798584</ele>
<time>2012-04-06T12:40:41Z</time>
</trkpt>
<trkpt lat="50.2448389" lon="11.0445695">
<ele>348.6152344</ele>
<time>2012-04-06T12:40:46Z</time>
</trkpt>
<trkpt lat="50.2448099" lon="11.0444342">
<ele>347.1732178</ele>
<time>2012-04-06T12:40:50Z</time>
</trkpt>
<trkpt lat="50.2447800" lon="11.0442819">
<ele>344.2894287</ele>
<time>2012-04-06T12:40:54Z</time>
</trkpt>
<trkpt lat="50.2447465" lon="11.0441222">
<ele>341.4052734</ele>
<time>2012-04-06T12:40:59Z</time>
</trkpt>
<trkpt lat="50.2447105" lon="11.0439733">
<ele>339.4826660</ele>
<time>2012-04-06T12:41:03Z</time>
</trkpt>
<trkpt lat="50.2446608" lon="11.0438002">
<ele>338.0407715</ele>
<time>2012-04-06T12:41:08Z</time>
</trkpt>
<trkpt lat="50.2446198" lon="11.0436233">
<ele>337.0794678</ele>
<time>2012-04-06T12:41:12Z</time>
</trkpt>
<trkpt lat="50.2445825" lon="11.0434624">
<ele>335.6373291</ele>
<time>2012-04-06T12:41:16Z</time>
</trkpt>
<trkpt lat="50.2445281" lon="11.0432889">
<ele>336.5988770</ele>
<time>2012-04-06T12:41:20Z</time>
</trkpt>
<trkpt lat="50.2444756" lon="11.0431268">
<ele>336.5988770</ele>
<time>2012-04-06T12:41:24Z</time>
</trkpt>
<trkpt lat="50.2444131" lon="11.0428909">
<ele>335.6373291</ele>
<time>2012-04-06T12:41:30Z</time>
</trkpt>
<trkpt lat="50.2443475" lon="11.0426875">
<ele>334.6761475</ele>
<time>2012-04-06T12:41:35Z</time>
</trkpt>
<trkpt lat="50.2442752" lon="11.0424283">
<ele>333.7147217</ele>
<time>2012-04-06T12:41:41Z</time>
</trkpt>
<trkpt lat="50.2442034" lon="11.0421762">
<ele>334.1954346</ele>
<time>2012-04-06T12:41:47Z</time>
</trkpt>
<trkpt lat="50.2441500" lon="11.0419979">
<ele>333.2341309</ele>
<time>2012-04-06T12:41:51Z</time>
</trkpt>
<trkpt lat="50.2441209" lon="11.0418629">
<ele>331.7921143</ele>
<time>2012-04-06T12:41:54Z</time>
</trkpt>
<trkpt lat="50.2440783" lon="11.0417041">
<ele>329.8695068</ele>
<time>2012-04-06T12:41:58Z</time>
</trkpt>
<trkpt lat="50.2440437" lon="11.0414996">
<ele>327.4661865</ele>
<time>2012-04-06T12:42:02Z</time>
</trkpt>
<trkpt lat="50.2440090" lon="11.0413159">
<ele>326.5048828</ele>
<time>2012-04-06T12:42:06Z</time>
</trkpt>
<trkpt lat="50.2439918" lon="11.0411768">
<ele>325.5435791</ele>
<time>2012-04-06T12:42:09Z</time>
</trkpt>
<trkpt lat="50.2439729" lon="11.0409900">
<ele>323.6209717</ele>
<time>2012-04-06T12:42:13Z</time>
</trkpt>
<trkpt lat="50.2439638" lon="11.0407614">
<ele>321.2177734</ele>
<time>2012-04-06T12:42:18Z</time>
</trkpt>
<trkpt lat="50.2439612" lon="11.0405911">
<ele>320.2563477</ele>
<time>2012-04-06T12:42:22Z</time>
</trkpt>
<trkpt lat="50.2439511" lon="11.0403668">
<ele>320.2563477</ele>
<time>2012-04-06T12:42:27Z</time>
</trkpt>
<trkpt lat="50.2439426" lon="11.0401948">
<ele>320.2563477</ele>
<time>2012-04-06T12:42:31Z</time>
</trkpt>
<trkpt lat="50.2439312" lon="11.0399741">
<ele>321.2177734</ele>
<time>2012-04-06T12:42:36Z</time>
</trkpt>
<trkpt lat="50.2439292" lon="11.0396772">
<ele>321.6983643</ele>
<time>2012-04-06T12:42:42Z</time>
</trkpt>
<trkpt lat="50.2439307" lon="11.0394042">
<ele>323.6209717</ele>
<time>2012-04-06T12:42:48Z</time>
</trkpt>
<trkpt lat="50.2439210" lon="11.0392299">
<ele>325.5435791</ele>
<time>2012-04-06T12:42:52Z</time>
</trkpt>
<trkpt lat="50.2439107" lon="11.0390267">
<ele>326.9855957</ele>
<time>2012-04-06T12:42:56Z</time>
</trkpt>
<trkpt lat="50.2438993" lon="11.0388025">
<ele>329.3889160</ele>
<time>2012-04-06T12:43:01Z</time>
</trkpt>
<trkpt lat="50.2438887" lon="11.0386074">
<ele>328.4276123</ele>
<time>2012-04-06T12:43:05Z</time>
</trkpt>
<trkpt lat="50.2438870" lon="11.0384085">
<ele>328.4276123</ele>
<time>2012-04-06T12:43:10Z</time>
</trkpt>
<trkpt lat="50.2438791" lon="11.0382057">
<ele>329.3889160</ele>
<time>2012-04-06T12:43:15Z</time>
</trkpt>
<trkpt lat="50.2438738" lon="11.0379533">
<ele>329.8695068</ele>
<time>2012-04-06T12:43:21Z</time>
</trkpt>
<trkpt lat="50.2438692" lon="11.0377962">
<ele>331.3115234</ele>
<time>2012-04-06T12:43:25Z</time>
</trkpt>
<trkpt lat="50.2438532" lon="11.0376356">
<ele>334.1954346</ele>
<time>2012-04-06T12:43:29Z</time>
</trkpt>
<trkpt lat="50.2438242" lon="11.0374240">
<ele>338.0407715</ele>
<time>2012-04-06T12:43:34Z</time>
</trkpt>
<trkpt lat="50.2437770" lon="11.0372147">
<ele>342.3666992</ele>
<time>2012-04-06T12:43:39Z</time>
</trkpt>
<trkpt lat="50.2437354" lon="11.0370179">
<ele>346.2120361</ele>
<time>2012-04-06T12:43:44Z</time>
</trkpt>
<trkpt lat="50.2436813" lon="11.0367985">
<ele>349.0958252</ele>
<time>2012-04-06T12:43:50Z</time>
</trkpt>
<trkpt lat="50.2436563" lon="11.0366556">
<ele>349.5765381</ele>
<time>2012-04-06T12:43:54Z</time>
</trkpt>
<trkpt lat="50.2436134" lon="11.0364791">
<ele>351.4991455</ele>
<time>2012-04-06T12:43:59Z</time>
</trkpt>
<trkpt lat="50.2435865" lon="11.0363118">
<ele>352.4605713</ele>
<time>2012-04-06T12:44:04Z</time>
</trkpt>
<trkpt lat="50.2435525" lon="11.0361148">
<ele>353.4218750</ele>
<time>2012-04-06T12:44:10Z</time>
</trkpt>
<trkpt lat="50.2435096" lon="11.0359141">
<ele>355.3444824</ele>
<time>2012-04-06T12:44:16Z</time>
</trkpt>
<trkpt lat="50.2434696" lon="11.0357804">
<ele>356.7863770</ele>
<time>2012-04-06T12:44:20Z</time>
</trkpt>
<trkpt lat="50.2434071" lon="11.0356109">
<ele>357.7478027</ele>
<time>2012-04-06T12:44:25Z</time>
</trkpt>
<trkpt lat="50.2433238" lon="11.0354415">
<ele>356.3057861</ele>
<time>2012-04-06T12:44:30Z</time>
</trkpt>
<trkpt lat="50.2432430" lon="11.0353300">
<ele>355.3444824</ele>
<time>2012-04-06T12:44:34Z</time>
</trkpt>
<trkpt lat="50.2431685" lon="11.0351975">
<ele>353.4218750</ele>
<time>2012-04-06T12:44:38Z</time>
</trkpt>
<trkpt lat="50.2431186" lon="11.0350479">
<ele>349.0958252</ele>
<time>2012-04-06T12:44:42Z</time>
</trkpt>
<trkpt lat="50.2430843" lon="11.0349413">
<ele>347.1732178</ele>
<time>2012-04-06T12:44:45Z</time>
</trkpt>
<trkpt lat="50.2430364" lon="11.0347661">
<ele>343.3278809</ele>
<time>2012-04-06T12:44:50Z</time>
</trkpt>
<trkpt lat="50.2430234" lon="11.0345113">
<ele>340.4440918</ele>
<time>2012-04-06T12:44:56Z</time>
</trkpt>
<trkpt lat="50.2430358" lon="11.0344263">
<ele>341.4052734</ele>
<time>2012-04-06T12:44:58Z</time>
</trkpt>
<trkpt lat="50.2430045" lon="11.0342045">
<ele>340.4440918</ele>
<time>2012-04-06T12:45:03Z</time>
</trkpt>
<trkpt lat="50.2429760" lon="11.0339523">
<ele>338.5214844</ele>
<time>2012-04-06T12:45:08Z</time>
</trkpt>
<trkpt lat="50.2429050" lon="11.0336632">
<ele>336.5988770</ele>
<time>2012-04-06T12:45:14Z</time>
</trkpt>
<trkpt lat="50.2428801" lon="11.0335320">
<ele>334.6761475</ele>
<time>2012-04-06T12:45:17Z</time>
</trkpt>
<trkpt lat="50.2428643" lon="11.0333062">
<ele>331.7921143</ele>
<time>2012-04-06T12:45:22Z</time>
</trkpt>
<trkpt lat="50.2428173" lon="11.0330946">
<ele>328.9083252</ele>
<time>2012-04-06T12:45:27Z</time>
</trkpt>
<trkpt lat="50.2428055" lon="11.0330561">
<ele>328.4276123</ele>
<time>2012-04-06T12:45:28Z</time>
</trkpt>
<trkpt lat="50.2426783" lon="11.0327805">
<ele>328.4276123</ele>
<time>2012-04-06T12:45:35Z</time>
</trkpt>
<trkpt lat="50.2425653" lon="11.0326144">
<ele>328.9083252</ele>
<time>2012-04-06T12:45:40Z</time>
</trkpt>
<trkpt lat="50.2425139" lon="11.0325071">
<ele>327.9467773</ele>
<time>2012-04-06T12:45:43Z</time>
</trkpt>
<trkpt lat="50.2423868" lon="11.0322743">
<ele>326.5048828</ele>
<time>2012-04-06T12:45:50Z</time>
</trkpt>
<trkpt lat="50.2423530" lon="11.0322092">
<ele>325.5435791</ele>
<time>2012-04-06T12:45:52Z</time>
</trkpt>
<trkpt lat="50.2422738" lon="11.0320859">
<ele>325.5435791</ele>
<time>2012-04-06T12:45:56Z</time>
</trkpt>
<trkpt lat="50.2421795" lon="11.0318743">
<ele>325.0629883</ele>
<time>2012-04-06T12:46:02Z</time>
</trkpt>
<trkpt lat="50.2421104" lon="11.0316980">
<ele>324.5822754</ele>
<time>2012-04-06T12:46:07Z</time>
</trkpt>
<trkpt lat="50.2420663" lon="11.0314891">
<ele>325.0629883</ele>
<time>2012-04-06T12:46:12Z</time>
</trkpt>
<trkpt lat="50.2420375" lon="11.0312957">
<ele>326.0241699</ele>
<time>2012-04-06T12:46:17Z</time>
</trkpt>
<trkpt lat="50.2420073" lon="11.0310577">
<ele>326.5048828</ele>
<time>2012-04-06T12:46:22Z</time>
</trkpt>
<trkpt lat="50.2419732" lon="11.0308468">
<ele>327.9467773</ele>
<time>2012-04-06T12:46:27Z</time>
</trkpt>
<trkpt lat="50.2419156" lon="11.0306280">
<ele>329.8695068</ele>
<time>2012-04-06T12:46:32Z</time>
</trkpt>
<trkpt lat="50.2418681" lon="11.0304488">
<ele>330.8309326</ele>
<time>2012-04-06T12:46:37Z</time>
</trkpt>
<trkpt lat="50.2418327" lon="11.0302587">
<ele>332.2728271</ele>
<time>2012-04-06T12:46:42Z</time>
</trkpt>
<trkpt lat="50.2418246" lon="11.0301747">
<ele>332.7535400</ele>
<time>2012-04-06T12:46:44Z</time>
</trkpt>
<trkpt lat="50.2418085" lon="11.0299760">
<ele>334.1954346</ele>
<time>2012-04-06T12:46:49Z</time>
</trkpt>
<trkpt lat="50.2418044" lon="11.0299326">
<ele>334.6761475</ele>
<time>2012-04-06T12:46:50Z</time>
</trkpt>
<trkpt lat="50.2417830" lon="11.0296860">
<ele>338.5214844</ele>
<time>2012-04-06T12:46:56Z</time>
</trkpt>
<trkpt lat="50.2417649" lon="11.0294943">
<ele>340.9246826</ele>
<time>2012-04-06T12:47:01Z</time>
</trkpt>
<trkpt lat="50.2417569" lon="11.0294109">
<ele>341.8859863</ele>
<time>2012-04-06T12:47:03Z</time>
</trkpt>
<trkpt lat="50.2417267" lon="11.0291502">
<ele>344.7700195</ele>
<time>2012-04-06T12:47:09Z</time>
</trkpt>
<trkpt lat="50.2417055" lon="11.0290317">
<ele>345.7313232</ele>
<time>2012-04-06T12:47:12Z</time>
</trkpt>
<trkpt lat="50.2416894" lon="11.0288733">
<ele>346.2120361</ele>
<time>2012-04-06T12:47:16Z</time>
</trkpt>
<trkpt lat="50.2416618" lon="11.0286728">
<ele>346.6926270</ele>
<time>2012-04-06T12:47:21Z</time>
</trkpt>
<trkpt lat="50.2416383" lon="11.0284742">
<ele>346.6926270</ele>
<time>2012-04-06T12:47:26Z</time>
</trkpt>
<trkpt lat="50.2416062" lon="11.0282795">
<ele>347.6539307</ele>
<time>2012-04-06T12:47:31Z</time>
</trkpt>
<trkpt lat="50.2415725" lon="11.0281348">
<ele>349.5765381</ele>
<time>2012-04-06T12:47:35Z</time>
</trkpt>
<trkpt lat="50.2415050" lon="11.0279397">
<ele>350.0572510</ele>
<time>2012-04-06T12:47:41Z</time>
</trkpt>
<trkpt lat="50.2414615" lon="11.0278968">
<ele>350.0572510</ele>
<time>2012-04-06T12:47:43Z</time>
</trkpt>
<trkpt lat="50.2412786" lon="11.0279515">
<ele>348.6152344</ele>
<time>2012-04-06T12:47:50Z</time>
</trkpt>
<trkpt lat="50.2411497" lon="11.0280830">
<ele>346.6926270</ele>
<time>2012-04-06T12:47:55Z</time>
</trkpt>
<trkpt lat="50.2410441" lon="11.0282507">
<ele>345.2506104</ele>
<time>2012-04-06T12:48:00Z</time>
</trkpt>
<trkpt lat="50.2409262" lon="11.0284634">
<ele>344.2894287</ele>
<time>2012-04-06T12:48:06Z</time>
</trkpt>
<trkpt lat="50.2408179" lon="11.0286301">
<ele>342.8472900</ele>
<time>2012-04-06T12:48:11Z</time>
</trkpt>
<trkpt lat="50.2406994" lon="11.0287919">
<ele>340.9246826</ele>
<time>2012-04-06T12:48:16Z</time>
</trkpt>
<trkpt lat="50.2405996" lon="11.0289059">
<ele>339.4826660</ele>
<time>2012-04-06T12:48:20Z</time>
</trkpt>
<trkpt lat="50.2404452" lon="11.0291068">
<ele>338.0407715</ele>
<time>2012-04-06T12:48:27Z</time>
</trkpt>
<trkpt lat="50.2403082" lon="11.0292860">
<ele>335.6373291</ele>
<time>2012-04-06T12:48:33Z</time>
</trkpt>
<trkpt lat="50.2401523" lon="11.0294949">
<ele>333.7147217</ele>
<time>2012-04-06T12:48:40Z</time>
</trkpt>
<trkpt lat="50.2400368" lon="11.0296388">
<ele>333.7147217</ele>
<time>2012-04-06T12:48:45Z</time>
</trkpt>
<trkpt lat="50.2399037" lon="11.0297822">
<ele>334.6761475</ele>
<time>2012-04-06T12:48:50Z</time>
</trkpt>
<trkpt lat="50.2398061" lon="11.0299279">
<ele>336.1181641</ele>
<time>2012-04-06T12:48:55Z</time>
</trkpt>
<trkpt lat="50.2397127" lon="11.0300961">
<ele>336.5988770</ele>
<time>2012-04-06T12:49:00Z</time>
</trkpt>
<trkpt lat="50.2396479" lon="11.0302476">
<ele>337.0794678</ele>
<time>2012-04-06T12:49:04Z</time>
</trkpt>
<trkpt lat="50.2395669" lon="11.0304060">
<ele>336.5988770</ele>
<time>2012-04-06T12:49:08Z</time>
</trkpt>
<trkpt lat="50.2394723" lon="11.0305876">
<ele>334.6761475</ele>
<time>2012-04-06T12:49:13Z</time>
</trkpt>
<trkpt lat="50.2393863" lon="11.0307589">
<ele>331.7921143</ele>
<time>2012-04-06T12:49:18Z</time>
</trkpt>
<trkpt lat="50.2393137" lon="11.0309359">
<ele>331.3115234</ele>
<time>2012-04-06T12:49:23Z</time>
</trkpt>
<trkpt lat="50.2392748" lon="11.0310479">
<ele>331.3115234</ele>
<time>2012-04-06T12:49:26Z</time>
</trkpt>
<trkpt lat="50.2391910" lon="11.0311732">
<ele>331.7921143</ele>
<time>2012-04-06T12:49:30Z</time>
</trkpt>
<trkpt lat="50.2390204" lon="11.0313745">
<ele>332.2728271</ele>
<time>2012-04-06T12:49:37Z</time>
</trkpt>
<trkpt lat="50.2388635" lon="11.0315309">
<ele>333.2341309</ele>
<time>2012-04-06T12:49:43Z</time>
</trkpt>
<trkpt lat="50.2387420" lon="11.0316992">
<ele>334.1954346</ele>
<time>2012-04-06T12:49:49Z</time>
</trkpt>
<trkpt lat="50.2386431" lon="11.0318389">
<ele>334.1954346</ele>
<time>2012-04-06T12:49:54Z</time>
</trkpt>
<trkpt lat="50.2385278" lon="11.0319626">
<ele>335.1567383</ele>
<time>2012-04-06T12:49:59Z</time>
</trkpt>
<trkpt lat="50.2383802" lon="11.0321012">
<ele>335.6373291</ele>
<time>2012-04-06T12:50:05Z</time>
</trkpt>
<trkpt lat="50.2382658" lon="11.0322003">
<ele>334.6761475</ele>
<time>2012-04-06T12:50:10Z</time>
</trkpt>
<trkpt lat="50.2381597" lon="11.0322489">
<ele>333.7147217</ele>
<time>2012-04-06T12:50:15Z</time>
</trkpt>
<trkpt lat="50.2380173" lon="11.0322490">
<ele>336.5988770</ele>
<time>2012-04-06T12:50:20Z</time>
</trkpt>
<trkpt lat="50.2379912" lon="11.0322402">
<ele>336.5988770</ele>
<time>2012-04-06T12:50:21Z</time>
</trkpt>
<trkpt lat="50.2378215" lon="11.0322028">
<ele>339.4826660</ele>
<time>2012-04-06T12:50:27Z</time>
</trkpt>
<trkpt lat="50.2377654" lon="11.0321864">
<ele>339.4826660</ele>
<time>2012-04-06T12:50:29Z</time>
</trkpt>
<trkpt lat="50.2376299" lon="11.0321454">
<ele>339.4826660</ele>
<time>2012-04-06T12:50:34Z</time>
</trkpt>
<trkpt lat="50.2374843" lon="11.0320527">
<ele>339.0020752</ele>
<time>2012-04-06T12:50:39Z</time>
</trkpt>
<trkpt lat="50.2373825" lon="11.0319674">
<ele>338.0407715</ele>
<time>2012-04-06T12:50:43Z</time>
</trkpt>
<trkpt lat="50.2373331" lon="11.0319384">
<ele>337.0794678</ele>
<time>2012-04-06T12:50:45Z</time>
</trkpt>
<trkpt lat="50.2372480" lon="11.0318486">
<ele>334.6761475</ele>
<time>2012-04-06T12:50:49Z</time>
</trkpt>
<trkpt lat="50.2370817" lon="11.0317195">
<ele>331.7921143</ele>
<time>2012-04-06T12:50:56Z</time>
</trkpt>
<trkpt lat="50.2369615" lon="11.0316680">
<ele>331.7921143</ele>
<time>2012-04-06T12:51:01Z</time>
</trkpt>
<trkpt lat="50.2368538" lon="11.0316234">
<ele>333.2341309</ele>
<time>2012-04-06T12:51:05Z</time>
</trkpt>
<trkpt lat="50.2367662" lon="11.0315928">
<ele>332.7535400</ele>
<time>2012-04-06T12:51:08Z</time>
</trkpt>
<trkpt lat="50.2366483" lon="11.0315496">
<ele>335.1567383</ele>
<time>2012-04-06T12:51:12Z</time>
</trkpt>
<trkpt lat="50.2365289" lon="11.0315358">
<ele>337.0794678</ele>
<time>2012-04-06T12:51:16Z</time>
</trkpt>
<trkpt lat="50.2363840" lon="11.0315497">
<ele>338.0407715</ele>
<time>2012-04-06T12:51:21Z</time>
</trkpt>
<trkpt lat="50.2362523" lon="11.0315920">
<ele>338.0407715</ele>
<time>2012-04-06T12:51:26Z</time>
</trkpt>
<trkpt lat="50.2361062" lon="11.0316978">
<ele>336.5988770</ele>
<time>2012-04-06T12:51:32Z</time>
</trkpt>
<trkpt lat="50.2360057" lon="11.0318129">
<ele>336.5988770</ele>
<time>2012-04-06T12:51:37Z</time>
</trkpt>
<trkpt lat="50.2359188" lon="11.0319030">
<ele>337.0794678</ele>
<time>2012-04-06T12:51:41Z</time>
</trkpt>
<trkpt lat="50.2357795" lon="11.0320399">
<ele>335.6373291</ele>
<time>2012-04-06T12:51:47Z</time>
</trkpt>
<trkpt lat="50.2357152" lon="11.0321123">
<ele>335.1567383</ele>
<time>2012-04-06T12:51:50Z</time>
</trkpt>
<trkpt lat="50.2355664" lon="11.0321974">
<ele>336.5988770</ele>
<time>2012-04-06T12:51:56Z</time>
</trkpt>
<trkpt lat="50.2354371" lon="11.0322885">
<ele>338.5214844</ele>
<time>2012-04-06T12:52:02Z</time>
</trkpt>
<trkpt lat="50.2353256" lon="11.0323849">
<ele>339.9633789</ele>
<time>2012-04-06T12:52:07Z</time>
</trkpt>
<trkpt lat="50.2352136" lon="11.0325113">
<ele>340.4440918</ele>
<time>2012-04-06T12:52:13Z</time>
</trkpt>
<trkpt lat="50.2352009" lon="11.0324158">
<ele>340.9246826</ele>
<time>2012-04-06T12:52:17Z</time>
</trkpt>
<trkpt lat="50.2352506" lon="11.0322328">
<ele>341.8859863</ele>
<time>2012-04-06T12:52:22Z</time>
</trkpt>
<trkpt lat="50.2353018" lon="11.0320720">
<ele>342.3666992</ele>
<time>2012-04-06T12:52:27Z</time>
</trkpt>
<trkpt lat="50.2353686" lon="11.0318599">
<ele>344.2894287</ele>
<time>2012-04-06T12:52:33Z</time>
</trkpt>
<trkpt lat="50.2354390" lon="11.0316395">
<ele>346.2120361</ele>
<time>2012-04-06T12:52:39Z</time>
</trkpt>
<trkpt lat="50.2354977" lon="11.0314513">
<ele>346.6926270</ele>
<time>2012-04-06T12:52:44Z</time>
</trkpt>
<trkpt lat="50.2355401" lon="11.0313252">
<ele>345.7313232</ele>
<time>2012-04-06T12:52:47Z</time>
</trkpt>
<trkpt lat="50.2356230" lon="11.0310860">
<ele>344.7700195</ele>
<time>2012-04-06T12:52:53Z</time>
</trkpt>
<trkpt lat="50.2356774" lon="11.0309116">
<ele>343.8085938</ele>
<time>2012-04-06T12:52:57Z</time>
</trkpt>
<trkpt lat="50.2357347" lon="11.0306956">
<ele>342.8472900</ele>
<time>2012-04-06T12:53:02Z</time>
</trkpt>
<trkpt lat="50.2357867" lon="11.0305151">
<ele>341.8859863</ele>
<time>2012-04-06T12:53:06Z</time>
</trkpt>
<trkpt lat="50.2358792" lon="11.0303355">
<ele>339.4826660</ele>
<time>2012-04-06T12:53:11Z</time>
</trkpt>
<trkpt lat="50.2359515" lon="11.0302061">
<ele>339.4826660</ele>
<time>2012-04-06T12:53:15Z</time>
</trkpt>
<trkpt lat="50.2360963" lon="11.0300140">
<ele>339.4826660</ele>
<time>2012-04-06T12:53:22Z</time>
</trkpt>
<trkpt lat="50.2362000" lon="11.0298936">
<ele>339.4826660</ele>
<time>2012-04-06T12:53:27Z</time>
</trkpt>
<trkpt lat="50.2363425" lon="11.0297491">
<ele>338.5214844</ele>
<time>2012-04-06T12:53:32Z</time>
</trkpt>
<trkpt lat="50.2364745" lon="11.0296220">
<ele>338.5214844</ele>
<time>2012-04-06T12:53:36Z</time>
</trkpt>
<trkpt lat="50.2365906" lon="11.0294756">
<ele>337.5600586</ele>
<time>2012-04-06T12:53:41Z</time>
</trkpt>
<trkpt lat="50.2366627" lon="11.0293913">
<ele>338.0407715</ele>
<time>2012-04-06T12:53:44Z</time>
</trkpt>
<trkpt lat="50.2367521" lon="11.0292397">
<ele>338.0407715</ele>
<time>2012-04-06T12:53:49Z</time>
</trkpt>
<trkpt lat="50.2368268" lon="11.0291022">
<ele>337.5600586</ele>
<time>2012-04-06T12:53:53Z</time>
</trkpt>
<trkpt lat="50.2369081" lon="11.0288979">
<ele>337.0794678</ele>
<time>2012-04-06T12:53:58Z</time>
</trkpt>
<trkpt lat="50.2369439" lon="11.0287737">
<ele>336.1181641</ele>
<time>2012-04-06T12:54:02Z</time>
</trkpt>
<trkpt lat="50.2369935" lon="11.0286364">
<ele>338.0407715</ele>
<time>2012-04-06T12:54:06Z</time>
</trkpt>
<trkpt lat="50.2370619" lon="11.0284333">
<ele>339.0020752</ele>
<time>2012-04-06T12:54:12Z</time>
</trkpt>
<trkpt lat="50.2371041" lon="11.0283251">
<ele>339.0020752</ele>
<time>2012-04-06T12:54:15Z</time>
</trkpt>
<trkpt lat="50.2371931" lon="11.0281667">
<ele>339.9633789</ele>
<time>2012-04-06T12:54:20Z</time>
</trkpt>
<trkpt lat="50.2372742" lon="11.0280343">
<ele>339.9633789</ele>
<time>2012-04-06T12:54:24Z</time>
</trkpt>
<trkpt lat="50.2373502" lon="11.0278775">
<ele>341.8859863</ele>
<time>2012-04-06T12:54:29Z</time>
</trkpt>
<trkpt lat="50.2373848" lon="11.0278185">
<ele>341.8859863</ele>
<time>2012-04-06T12:54:31Z</time>
</trkpt>
<trkpt lat="50.2374336" lon="11.0276668">
<ele>344.2894287</ele>
<time>2012-04-06T12:54:36Z</time>
</trkpt>
<trkpt lat="50.2375121" lon="11.0275129">
<ele>345.7313232</ele>
<time>2012-04-06T12:54:41Z</time>
</trkpt>
<trkpt lat="50.2375837" lon="11.0273423">
<ele>346.6926270</ele>
<time>2012-04-06T12:54:46Z</time>
</trkpt>
<trkpt lat="50.2376650" lon="11.0272097">
<ele>347.1732178</ele>
<time>2012-04-06T12:54:50Z</time>
</trkpt>
<trkpt lat="50.2377301" lon="11.0270753">
<ele>347.1732178</ele>
<time>2012-04-06T12:54:54Z</time>
</trkpt>
<trkpt lat="50.2377887" lon="11.0269227">
<ele>348.6152344</ele>
<time>2012-04-06T12:54:59Z</time>
</trkpt>
<trkpt lat="50.2378483" lon="11.0268265">
<ele>348.6152344</ele>
<time>2012-04-06T12:55:02Z</time>
</trkpt>
<trkpt lat="50.2378955" lon="11.0267007">
<ele>349.5765381</ele>
<time>2012-04-06T12:55:06Z</time>
</trkpt>
<trkpt lat="50.2380132" lon="11.0265183">
<ele>349.5765381</ele>
<time>2012-04-06T12:55:12Z</time>
</trkpt>
<trkpt lat="50.2381189" lon="11.0263878">
<ele>349.5765381</ele>
<time>2012-04-06T12:55:17Z</time>
</trkpt>
<trkpt lat="50.2382416" lon="11.0262807">
<ele>349.5765381</ele>
<time>2012-04-06T12:55:22Z</time>
</trkpt>
<trkpt lat="50.2383580" lon="11.0261604">
<ele>348.6152344</ele>
<time>2012-04-06T12:55:27Z</time>
</trkpt>
<trkpt lat="50.2384709" lon="11.0260322">
<ele>347.6539307</ele>
<time>2012-04-06T12:55:32Z</time>
</trkpt>
<trkpt lat="50.2385772" lon="11.0259055">
<ele>347.6539307</ele>
<time>2012-04-06T12:55:37Z</time>
</trkpt>
<trkpt lat="50.2386891" lon="11.0257791">
<ele>347.1732178</ele>
<time>2012-04-06T12:55:42Z</time>
</trkpt>
<trkpt lat="50.2388086" lon="11.0256152">
<ele>347.1732178</ele>
<time>2012-04-06T12:55:48Z</time>
</trkpt>
<trkpt lat="50.2388792" lon="11.0255377">
<ele>346.6926270</ele>
<time>2012-04-06T12:55:51Z</time>
</trkpt>
<trkpt lat="50.2389493" lon="11.0254329">
<ele>347.1732178</ele>
<time>2012-04-06T12:55:55Z</time>
</trkpt>
<trkpt lat="50.2391278" lon="11.0252761">
<ele>346.2120361</ele>
<time>2012-04-06T12:56:02Z</time>
</trkpt>
<trkpt lat="50.2392287" lon="11.0251936">
<ele>345.7313232</ele>
<time>2012-04-06T12:56:06Z</time>
</trkpt>
<trkpt lat="50.2393657" lon="11.0250409">
<ele>344.2894287</ele>
<time>2012-04-06T12:56:12Z</time>
</trkpt>
<trkpt lat="50.2394950" lon="11.0248990">
<ele>342.8472900</ele>
<time>2012-04-06T12:56:18Z</time>
</trkpt>
<trkpt lat="50.2395894" lon="11.0248199">
<ele>342.8472900</ele>
<time>2012-04-06T12:56:22Z</time>
</trkpt>
<trkpt lat="50.2397289" lon="11.0247146">
<ele>343.3278809</ele>
<time>2012-04-06T12:56:28Z</time>
</trkpt>
<trkpt lat="50.2398472" lon="11.0246193">
<ele>343.8085938</ele>
<time>2012-04-06T12:56:33Z</time>
</trkpt>
<trkpt lat="50.2399702" lon="11.0245310">
<ele>344.7700195</ele>
<time>2012-04-06T12:56:38Z</time>
</trkpt>
<trkpt lat="50.2400811" lon="11.0244352">
<ele>345.2506104</ele>
<time>2012-04-06T12:56:43Z</time>
</trkpt>
<trkpt lat="50.2401618" lon="11.0243537">
<ele>345.7313232</ele>
<time>2012-04-06T12:56:47Z</time>
</trkpt>
<trkpt lat="50.2402707" lon="11.0242696">
<ele>346.2120361</ele>
<time>2012-04-06T12:56:52Z</time>
</trkpt>
<trkpt lat="50.2403903" lon="11.0241581">
<ele>346.2120361</ele>
<time>2012-04-06T12:56:57Z</time>
</trkpt>
<trkpt lat="50.2404908" lon="11.0240040">
<ele>346.6926270</ele>
<time>2012-04-06T12:57:03Z</time>
</trkpt>
<trkpt lat="50.2405014" lon="11.0238550">
<ele>345.7313232</ele>
<time>2012-04-06T12:57:07Z</time>
</trkpt>
<trkpt lat="50.2404483" lon="11.0236983">
<ele>346.2120361</ele>
<time>2012-04-06T12:57:11Z</time>
</trkpt>
<trkpt lat="50.2403816" lon="11.0234734">
<ele>349.5765381</ele>
<time>2012-04-06T12:57:16Z</time>
</trkpt>
<trkpt lat="50.2403308" lon="11.0232554">
<ele>352.4605713</ele>
<time>2012-04-06T12:57:21Z</time>
</trkpt>
<trkpt lat="50.2402862" lon="11.0230718">
<ele>352.4605713</ele>
<time>2012-04-06T12:57:25Z</time>
</trkpt>
<trkpt lat="50.2402342" lon="11.0228284">
<ele>353.4218750</ele>
<time>2012-04-06T12:57:31Z</time>
</trkpt>
<trkpt lat="50.2401998" lon="11.0226451">
<ele>353.4218750</ele>
<time>2012-04-06T12:57:36Z</time>
</trkpt>
<trkpt lat="50.2401649" lon="11.0224754">
<ele>354.3831787</ele>
<time>2012-04-06T12:57:41Z</time>
</trkpt>
<trkpt lat="50.2401233" lon="11.0222348">
<ele>353.9025879</ele>
<time>2012-04-06T12:57:47Z</time>
</trkpt>
<trkpt lat="50.2400932" lon="11.0220213">
<ele>350.5378418</ele>
<time>2012-04-06T12:57:52Z</time>
</trkpt>
<trkpt lat="50.2400651" lon="11.0218573">
<ele>349.5765381</ele>
<time>2012-04-06T12:57:56Z</time>
</trkpt>
<trkpt lat="50.2400052" lon="11.0216302">
<ele>347.6539307</ele>
<time>2012-04-06T12:58:01Z</time>
</trkpt>
<trkpt lat="50.2399674" lon="11.0214522">
<ele>347.1732178</ele>
<time>2012-04-06T12:58:05Z</time>
</trkpt>
<trkpt lat="50.2399137" lon="11.0212503">
<ele>348.1346436</ele>
<time>2012-04-06T12:58:10Z</time>
</trkpt>
<trkpt lat="50.2398759" lon="11.0210132">
<ele>348.6152344</ele>
<time>2012-04-06T12:58:15Z</time>
</trkpt>
<trkpt lat="50.2398443" lon="11.0208015">
<ele>348.6152344</ele>
<time>2012-04-06T12:58:20Z</time>
</trkpt>
<trkpt lat="50.2398195" lon="11.0205854">
<ele>347.1732178</ele>
<time>2012-04-06T12:58:25Z</time>
</trkpt>
<trkpt lat="50.2397966" lon="11.0203416">
<ele>347.6539307</ele>
<time>2012-04-06T12:58:31Z</time>
</trkpt>
<trkpt lat="50.2397940" lon="11.0201344">
<ele>349.0958252</ele>
<time>2012-04-06T12:58:36Z</time>
</trkpt>
<trkpt lat="50.2397719" lon="11.0198930">
<ele>351.0184326</ele>
<time>2012-04-06T12:58:42Z</time>
</trkpt>
<trkpt lat="50.2397599" lon="11.0197278">
<ele>351.4991455</ele>
<time>2012-04-06T12:58:46Z</time>
</trkpt>
<trkpt lat="50.2397519" lon="11.0195579">
<ele>353.4218750</ele>
<time>2012-04-06T12:58:51Z</time>
</trkpt>
<trkpt lat="50.2397511" lon="11.0195185">
<ele>353.9025879</ele>
<time>2012-04-06T12:58:52Z</time>
</trkpt>
<trkpt lat="50.2397407" lon="11.0193605">
<ele>357.2670898</ele>
<time>2012-04-06T12:58:56Z</time>
</trkpt>
<trkpt lat="50.2397384" lon="11.0193196">
<ele>357.7478027</ele>
<time>2012-04-06T12:58:57Z</time>
</trkpt>
<trkpt lat="50.2397149" lon="11.0190227">
<ele>360.1511230</ele>
<time>2012-04-06T12:59:04Z</time>
</trkpt>
<trkpt lat="50.2397065" lon="11.0188326">
<ele>360.6317139</ele>
<time>2012-04-06T12:59:09Z</time>
</trkpt>
<trkpt lat="50.2396940" lon="11.0186367">
<ele>362.5543213</ele>
<time>2012-04-06T12:59:14Z</time>
</trkpt>
<trkpt lat="50.2396854" lon="11.0184637">
<ele>363.9963379</ele>
<time>2012-04-06T12:59:18Z</time>
</trkpt>
<trkpt lat="50.2396827" lon="11.0184208">
<ele>363.9963379</ele>
<time>2012-04-06T12:59:19Z</time>
</trkpt>
<trkpt lat="50.2396811" lon="11.0182173">
<ele>365.4383545</ele>
<time>2012-04-06T12:59:24Z</time>
</trkpt>
<trkpt lat="50.2396766" lon="11.0179619">
<ele>366.8802490</ele>
<time>2012-04-06T12:59:31Z</time>
</trkpt>
<trkpt lat="50.2396671" lon="11.0179305">
<ele>367.3609619</ele>
<time>2012-04-06T12:59:32Z</time>
</trkpt>
<trkpt lat="50.2396564" lon="11.0176946">
<ele>367.3609619</ele>
<time>2012-04-06T12:59:39Z</time>
</trkpt>
<trkpt lat="50.2396626" lon="11.0176325">
<ele>366.8802490</ele>
<time>2012-04-06T12:59:41Z</time>
</trkpt>
<trkpt lat="50.2396603" lon="11.0175423">
<ele>366.8802490</ele>
<time>2012-04-06T12:59:44Z</time>
</trkpt>
<trkpt lat="50.2396381" lon="11.0174079">
<ele>367.8415527</ele>
<time>2012-04-06T12:59:49Z</time>
</trkpt>
<trkpt lat="50.2396158" lon="11.0172490">
<ele>367.8415527</ele>
<time>2012-04-06T12:59:55Z</time>
</trkpt>
<trkpt lat="50.2395816" lon="11.0171447">
<ele>368.8029785</ele>
<time>2012-04-06T12:59:59Z</time>
</trkpt>
<trkpt lat="50.2395361" lon="11.0169988">
<ele>369.2836914</ele>
<time>2012-04-06T13:00:04Z</time>
</trkpt>
<trkpt lat="50.2394832" lon="11.0168966">
<ele>370.2448730</ele>
<time>2012-04-06T13:00:08Z</time>
</trkpt>
<trkpt lat="50.2394164" lon="11.0167360">
<ele>370.2448730</ele>
<time>2012-04-06T13:00:13Z</time>
</trkpt>
<trkpt lat="50.2393872" lon="11.0165991">
<ele>369.2836914</ele>
<time>2012-04-06T13:00:17Z</time>
</trkpt>
<trkpt lat="50.2393428" lon="11.0164863">
<ele>369.2836914</ele>
<time>2012-04-06T13:00:21Z</time>
</trkpt>
<trkpt lat="50.2392947" lon="11.0163234">
<ele>367.8415527</ele>
<time>2012-04-06T13:00:26Z</time>
</trkpt>
<trkpt lat="50.2392569" lon="11.0162467">
<ele>368.3222656</ele>
<time>2012-04-06T13:00:29Z</time>
</trkpt>
<trkpt lat="50.2392004" lon="11.0160752">
<ele>367.8415527</ele>
<time>2012-04-06T13:00:34Z</time>
</trkpt>
<trkpt lat="50.2391294" lon="11.0158799">
<ele>367.8415527</ele>
<time>2012-04-06T13:00:40Z</time>
</trkpt>
<trkpt lat="50.2390930" lon="11.0158127">
<ele>368.3222656</ele>
<time>2012-04-06T13:00:42Z</time>
</trkpt>
<trkpt lat="50.2390122" lon="11.0155829">
<ele>367.8415527</ele>
<time>2012-04-06T13:00:48Z</time>
</trkpt>
<trkpt lat="50.2389450" lon="11.0154520">
<ele>368.8029785</ele>
<time>2012-04-06T13:00:52Z</time>
</trkpt>
<trkpt lat="50.2388648" lon="11.0151895">
<ele>367.8415527</ele>
<time>2012-04-06T13:00:59Z</time>
</trkpt>
<trkpt lat="50.2387767" lon="11.0150219">
<ele>368.8029785</ele>
<time>2012-04-06T13:01:04Z</time>
</trkpt>
<trkpt lat="50.2386395" lon="11.0150299">
<ele>368.8029785</ele>
<time>2012-04-06T13:01:08Z</time>
</trkpt>
<trkpt lat="50.2385004" lon="11.0151200">
<ele>367.3609619</ele>
<time>2012-04-06T13:01:13Z</time>
</trkpt>
<trkpt lat="50.2382816" lon="11.0152355">
<ele>365.4383545</ele>
<time>2012-04-06T13:01:20Z</time>
</trkpt>
<trkpt lat="50.2381174" lon="11.0153069">
<ele>362.0737305</ele>
<time>2012-04-06T13:01:25Z</time>
</trkpt>
<trkpt lat="50.2379451" lon="11.0153773">
<ele>358.7089844</ele>
<time>2012-04-06T13:01:30Z</time>
</trkpt>
<trkpt lat="50.2377624" lon="11.0154826">
<ele>354.8637695</ele>
<time>2012-04-06T13:01:36Z</time>
</trkpt>
<trkpt lat="50.2375857" lon="11.0155366">
<ele>350.0572510</ele>
<time>2012-04-06T13:01:42Z</time>
</trkpt>
<trkpt lat="50.2373989" lon="11.0155643">
<ele>347.1732178</ele>
<time>2012-04-06T13:01:48Z</time>
</trkpt>
<trkpt lat="50.2372791" lon="11.0155803">
<ele>343.3278809</ele>
<time>2012-04-06T13:01:52Z</time>
</trkpt>
<trkpt lat="50.2371403" lon="11.0155340">
<ele>340.4440918</ele>
<time>2012-04-06T13:01:56Z</time>
</trkpt>
<trkpt lat="50.2370019" lon="11.0154957">
<ele>338.0407715</ele>
<time>2012-04-06T13:02:01Z</time>
</trkpt>
<trkpt lat="50.2367822" lon="11.0154443">
<ele>339.0020752</ele>
<time>2012-04-06T13:02:08Z</time>
</trkpt>
<trkpt lat="50.2365991" lon="11.0154044">
<ele>340.9246826</ele>
<time>2012-04-06T13:02:14Z</time>
</trkpt>
<trkpt lat="50.2363807" lon="11.0153664">
<ele>343.8085938</ele>
<time>2012-04-06T13:02:20Z</time>
</trkpt>
<trkpt lat="50.2362463" lon="11.0153721">
<ele>343.8085938</ele>
<time>2012-04-06T13:02:24Z</time>
</trkpt>
<trkpt lat="50.2360923" lon="11.0153721">
<ele>344.7700195</ele>
<time>2012-04-06T13:02:29Z</time>
</trkpt>
<trkpt lat="50.2359257" lon="11.0153805">
<ele>348.1346436</ele>
<time>2012-04-06T13:02:34Z</time>
</trkpt>
<trkpt lat="50.2358090" lon="11.0154065">
<ele>348.1346436</ele>
<time>2012-04-06T13:02:38Z</time>
</trkpt>
<trkpt lat="50.2356591" lon="11.0154795">
<ele>350.5378418</ele>
<time>2012-04-06T13:02:43Z</time>
</trkpt>
<trkpt lat="50.2355199" lon="11.0155956">
<ele>352.9411621</ele>
<time>2012-04-06T13:02:48Z</time>
</trkpt>
<trkpt lat="50.2354293" lon="11.0156922">
<ele>354.3831787</ele>
<time>2012-04-06T13:02:52Z</time>
</trkpt>
<trkpt lat="50.2353239" lon="11.0158153">
<ele>355.3444824</ele>
<time>2012-04-06T13:02:57Z</time>
</trkpt>
<trkpt lat="50.2352175" lon="11.0159473">
<ele>355.3444824</ele>
<time>2012-04-06T13:03:02Z</time>
</trkpt>
<trkpt lat="50.2350813" lon="11.0160926">
<ele>354.8637695</ele>
<time>2012-04-06T13:03:08Z</time>
</trkpt>
<trkpt lat="50.2349382" lon="11.0162337">
<ele>355.8251953</ele>
<time>2012-04-06T13:03:15Z</time>
</trkpt>
<trkpt lat="50.2348249" lon="11.0163058">
<ele>356.7863770</ele>
<time>2012-04-06T13:03:20Z</time>
</trkpt>
<trkpt lat="50.2347191" lon="11.0163939">
<ele>355.8251953</ele>
<time>2012-04-06T13:03:25Z</time>
</trkpt>
<trkpt lat="50.2346751" lon="11.0164057">
<ele>355.3444824</ele>
<time>2012-04-06T13:03:27Z</time>
</trkpt>
<trkpt lat="50.2346559" lon="11.0162427">
<ele>353.4218750</ele>
<time>2012-04-06T13:03:32Z</time>
</trkpt>
<trkpt lat="50.2346491" lon="11.0161990">
<ele>352.9411621</ele>
<time>2012-04-06T13:03:33Z</time>
</trkpt>
<trkpt lat="50.2346579" lon="11.0160329">
<ele>353.9025879</ele>
<time>2012-04-06T13:03:37Z</time>
</trkpt>
<trkpt lat="50.2346740" lon="11.0158318">
<ele>356.7863770</ele>
<time>2012-04-06T13:03:42Z</time>
</trkpt>
<trkpt lat="50.2346801" lon="11.0156598">
<ele>360.1511230</ele>
<time>2012-04-06T13:03:46Z</time>
</trkpt>
<trkpt lat="50.2346998" lon="11.0155759">
<ele>361.1124268</ele>
<time>2012-04-06T13:03:48Z</time>
</trkpt>
<trkpt lat="50.2347384" lon="11.0153323">
<ele>363.5157471</ele>
<time>2012-04-06T13:03:54Z</time>
</trkpt>
<trkpt lat="50.2347397" lon="11.0152936">
<ele>363.9963379</ele>
<time>2012-04-06T13:03:55Z</time>
</trkpt>
<trkpt lat="50.2347353" lon="11.0150945">
<ele>365.9189453</ele>
<time>2012-04-06T13:04:00Z</time>
</trkpt>
<trkpt lat="50.2347322" lon="11.0149796">
<ele>367.3609619</ele>
<time>2012-04-06T13:04:03Z</time>
</trkpt>
<trkpt lat="50.2347356" lon="11.0149422">
<ele>367.3609619</ele>
<time>2012-04-06T13:04:04Z</time>
</trkpt>
<trkpt lat="50.2347600" lon="11.0146931">
<ele>366.8802490</ele>
<time>2012-04-06T13:04:10Z</time>
</trkpt>
<trkpt lat="50.2347751" lon="11.0144597">
<ele>367.3609619</ele>
<time>2012-04-06T13:04:16Z</time>
</trkpt>
<trkpt lat="50.2348087" lon="11.0143082">
<ele>366.3995361</ele>
<time>2012-04-06T13:04:20Z</time>
</trkpt>
<trkpt lat="50.2348259" lon="11.0141156">
<ele>365.4383545</ele>
<time>2012-04-06T13:04:25Z</time>
</trkpt>
<trkpt lat="50.2347989" lon="11.0139322">
<ele>366.3995361</ele>
<time>2012-04-06T13:04:30Z</time>
</trkpt>
<trkpt lat="50.2347920" lon="11.0138522">
<ele>367.3609619</ele>
<time>2012-04-06T13:04:32Z</time>
</trkpt>
<trkpt lat="50.2347885" lon="11.0136504">
<ele>368.8029785</ele>
<time>2012-04-06T13:04:37Z</time>
</trkpt>
<trkpt lat="50.2347348" lon="11.0134235">
<ele>369.2836914</ele>
<time>2012-04-06T13:04:43Z</time>
</trkpt>
<trkpt lat="50.2346909" lon="11.0132836">
<ele>368.8029785</ele>
<time>2012-04-06T13:04:47Z</time>
</trkpt>
<trkpt lat="50.2346797" lon="11.0132153">
<ele>368.8029785</ele>
<time>2012-04-06T13:04:49Z</time>
</trkpt>
<trkpt lat="50.2346345" lon="11.0130832">
<ele>368.8029785</ele>
<time>2012-04-06T13:04:53Z</time>
</trkpt>
<trkpt lat="50.2345777" lon="11.0128885">
<ele>369.7642822</ele>
<time>2012-04-06T13:04:59Z</time>
</trkpt>
<trkpt lat="50.2345015" lon="11.0126336">
<ele>366.8802490</ele>
<time>2012-04-06T13:05:05Z</time>
</trkpt>
<trkpt lat="50.2344379" lon="11.0124317">
<ele>365.4383545</ele>
<time>2012-04-06T13:05:10Z</time>
</trkpt>
<trkpt lat="50.2343975" lon="11.0122117">
<ele>364.4769287</ele>
<time>2012-04-06T13:05:15Z</time>
</trkpt>
<trkpt lat="50.2343989" lon="11.0121260">
<ele>364.9576416</ele>
<time>2012-04-06T13:05:17Z</time>
</trkpt>
<trkpt lat="50.2343865" lon="11.0119615">
<ele>366.8802490</ele>
<time>2012-04-06T13:05:21Z</time>
</trkpt>
<trkpt lat="50.2344039" lon="11.0117068">
<ele>370.7255859</ele>
<time>2012-04-06T13:05:27Z</time>
</trkpt>
<trkpt lat="50.2344222" lon="11.0116188">
<ele>370.7255859</ele>
<time>2012-04-06T13:05:29Z</time>
</trkpt>
<trkpt lat="50.2343898" lon="11.0113097">
<ele>372.6481934</ele>
<time>2012-04-06T13:05:36Z</time>
</trkpt>
<trkpt lat="50.2343725" lon="11.0110263">
<ele>379.3774414</ele>
<time>2012-04-06T13:05:42Z</time>
</trkpt>
<trkpt lat="50.2343692" lon="11.0107944">
<ele>381.7806396</ele>
<time>2012-04-06T13:05:47Z</time>
</trkpt>
<trkpt lat="50.2343585" lon="11.0105937">
<ele>382.2613525</ele>
<time>2012-04-06T13:05:52Z</time>
</trkpt>
<trkpt lat="50.2344198" lon="11.0103123">
<ele>377.9354248</ele>
<time>2012-04-06T13:05:58Z</time>
</trkpt>
<trkpt lat="50.2344782" lon="11.0101549">
<ele>376.4935303</ele>
<time>2012-04-06T13:06:02Z</time>
</trkpt>
<trkpt lat="50.2345388" lon="11.0099467">
<ele>373.6094971</ele>
<time>2012-04-06T13:06:07Z</time>
</trkpt>
<trkpt lat="50.2345652" lon="11.0098498">
<ele>373.6094971</ele>
<time>2012-04-06T13:06:09Z</time>
</trkpt>
<trkpt lat="50.2345605" lon="11.0095281">
<ele>375.5321045</ele>
<time>2012-04-06T13:06:16Z</time>
</trkpt>
<trkpt lat="50.2345593" lon="11.0094438">
<ele>375.0515137</ele>
<time>2012-04-06T13:06:18Z</time>
</trkpt>
<trkpt lat="50.2345668" lon="11.0093223">
<ele>375.5321045</ele>
<time>2012-04-06T13:06:21Z</time>
</trkpt>
<trkpt lat="50.2345337" lon="11.0090749">
<ele>376.4935303</ele>
<time>2012-04-06T13:06:26Z</time>
</trkpt>
<trkpt lat="50.2344700" lon="11.0088241">
<ele>375.0515137</ele>
<time>2012-04-06T13:06:31Z</time>
</trkpt>
<trkpt lat="50.2343979" lon="11.0085843">
<ele>374.5708008</ele>
<time>2012-04-06T13:06:36Z</time>
</trkpt>
<trkpt lat="50.2343530" lon="11.0084305">
<ele>372.1674805</ele>
<time>2012-04-06T13:06:40Z</time>
</trkpt>
<trkpt lat="50.2343405" lon="11.0083924">
<ele>371.2062988</ele>
<time>2012-04-06T13:06:41Z</time>
</trkpt>
<trkpt lat="50.2342915" lon="11.0082021">
<ele>367.8415527</ele>
<time>2012-04-06T13:06:45Z</time>
</trkpt>
<trkpt lat="50.2342183" lon="11.0079767">
<ele>367.3609619</ele>
<time>2012-04-06T13:06:50Z</time>
</trkpt>
<trkpt lat="50.2341494" lon="11.0077462">
<ele>368.8029785</ele>
<time>2012-04-06T13:06:55Z</time>
</trkpt>
<trkpt lat="50.2340501" lon="11.0075009">
<ele>371.6868896</ele>
<time>2012-04-06T13:07:00Z</time>
</trkpt>
<trkpt lat="50.2339462" lon="11.0073507">
<ele>370.7255859</ele>
<time>2012-04-06T13:07:05Z</time>
</trkpt>
<trkpt lat="50.2339240" lon="11.0073982">
<ele>368.3222656</ele>
<time>2012-04-06T13:07:08Z</time>
</trkpt>
<trkpt lat="50.2339671" lon="11.0075774">
<ele>360.6317139</ele>
<time>2012-04-06T13:07:12Z</time>
</trkpt>
<trkpt lat="50.2339549" lon="11.0077551">
<ele>357.2670898</ele>
<time>2012-04-06T13:07:16Z</time>
</trkpt>
<trkpt lat="50.2339535" lon="11.0077970">
<ele>356.7863770</ele>
<time>2012-04-06T13:07:17Z</time>
</trkpt>
<trkpt lat="50.2339327" lon="11.0080672">
<ele>353.4218750</ele>
<time>2012-04-06T13:07:23Z</time>
</trkpt>
<trkpt lat="50.2339191" lon="11.0082568">
<ele>351.0184326</ele>
<time>2012-04-06T13:07:27Z</time>
</trkpt>
<trkpt lat="50.2339152" lon="11.0084714">
<ele>351.0184326</ele>
<time>2012-04-06T13:07:31Z</time>
</trkpt>
<trkpt lat="50.2339244" lon="11.0086682">
<ele>348.1346436</ele>
<time>2012-04-06T13:07:35Z</time>
</trkpt>
<trkpt lat="50.2339241" lon="11.0088281">
<ele>347.1732178</ele>
<time>2012-04-06T13:07:38Z</time>
</trkpt>
<trkpt lat="50.2339291" lon="11.0090640">
<ele>346.2120361</ele>
<time>2012-04-06T13:07:43Z</time>
</trkpt>
<trkpt lat="50.2339455" lon="11.0092292">
<ele>343.8085938</ele>
<time>2012-04-06T13:07:47Z</time>
</trkpt>
<trkpt lat="50.2338902" lon="11.0094613">
<ele>347.6539307</ele>
<time>2012-04-06T13:07:51Z</time>
</trkpt>
<trkpt lat="50.2337872" lon="11.0097274">
<ele>352.9411621</ele>
<time>2012-04-06T13:07:56Z</time>
</trkpt>
<trkpt lat="50.2337026" lon="11.0098912">
<ele>353.9025879</ele>
<time>2012-04-06T13:08:00Z</time>
</trkpt>
<trkpt lat="50.2335316" lon="11.0101316">
<ele>354.8637695</ele>
<time>2012-04-06T13:08:07Z</time>
</trkpt>
<trkpt lat="50.2334304" lon="11.0102377">
<ele>354.3831787</ele>
<time>2012-04-06T13:08:11Z</time>
</trkpt>
<trkpt lat="50.2333386" lon="11.0103719">
<ele>352.9411621</ele>
<time>2012-04-06T13:08:15Z</time>
</trkpt>
<trkpt lat="50.2332416" lon="11.0105714">
<ele>350.0572510</ele>
<time>2012-04-06T13:08:20Z</time>
</trkpt>
<trkpt lat="50.2331318" lon="11.0108092">
<ele>346.2120361</ele>
<time>2012-04-06T13:08:26Z</time>
</trkpt>
<trkpt lat="50.2330718" lon="11.0109624">
<ele>346.2120361</ele>
<time>2012-04-06T13:08:30Z</time>
</trkpt>
<trkpt lat="50.2330312" lon="11.0111570">
<ele>343.8085938</ele>
<time>2012-04-06T13:08:34Z</time>
</trkpt>
<trkpt lat="50.2329623" lon="11.0113568">
<ele>344.2894287</ele>
<time>2012-04-06T13:08:38Z</time>
</trkpt>
<trkpt lat="50.2328708" lon="11.0115732">
<ele>342.8472900</ele>
<time>2012-04-06T13:08:43Z</time>
</trkpt>
<trkpt lat="50.2327745" lon="11.0117150">
<ele>343.8085938</ele>
<time>2012-04-06T13:08:47Z</time>
</trkpt>
<trkpt lat="50.2326755" lon="11.0118831">
<ele>342.3666992</ele>
<time>2012-04-06T13:08:51Z</time>
</trkpt>
<trkpt lat="50.2325559" lon="11.0120399">
<ele>342.3666992</ele>
<time>2012-04-06T13:08:56Z</time>
</trkpt>
<trkpt lat="50.2324243" lon="11.0122581">
<ele>341.4052734</ele>
<time>2012-04-06T13:09:02Z</time>
</trkpt>
<trkpt lat="50.2323300" lon="11.0124284">
<ele>339.4826660</ele>
<time>2012-04-06T13:09:07Z</time>
</trkpt>
<trkpt lat="50.2322368" lon="11.0126023">
<ele>339.0020752</ele>
<time>2012-04-06T13:09:11Z</time>
</trkpt>
<trkpt lat="50.2321316" lon="11.0127657">
<ele>339.0020752</ele>
<time>2012-04-06T13:09:16Z</time>
</trkpt>
<trkpt lat="50.2320341" lon="11.0129485">
<ele>339.9633789</ele>
<time>2012-04-06T13:09:21Z</time>
</trkpt>
<trkpt lat="50.2319038" lon="11.0131265">
<ele>341.8859863</ele>
<time>2012-04-06T13:09:27Z</time>
</trkpt>
<trkpt lat="50.2318061" lon="11.0132985">
<ele>342.3666992</ele>
<time>2012-04-06T13:09:32Z</time>
</trkpt>
<trkpt lat="50.2317038" lon="11.0135178">
<ele>341.8859863</ele>
<time>2012-04-06T13:09:38Z</time>
</trkpt>
<trkpt lat="50.2316680" lon="11.0135783">
<ele>339.9633789</ele>
<time>2012-04-06T13:09:41Z</time>
</trkpt>
<trkpt lat="50.2315168" lon="11.0134972">
<ele>338.5214844</ele>
<time>2012-04-06T13:09:47Z</time>
</trkpt>
<trkpt lat="50.2313308" lon="11.0134549">
<ele>338.5214844</ele>
<time>2012-04-06T13:09:52Z</time>
</trkpt>
<trkpt lat="50.2312662" lon="11.0134425">
<ele>339.0020752</ele>
<time>2012-04-06T13:09:54Z</time>
</trkpt>
<trkpt lat="50.2311473" lon="11.0134283">
<ele>339.4826660</ele>
<time>2012-04-06T13:09:58Z</time>
</trkpt>
<trkpt lat="50.2310489" lon="11.0134443">
<ele>338.0407715</ele>
<time>2012-04-06T13:10:02Z</time>
</trkpt>
<trkpt lat="50.2309236" lon="11.0134799">
<ele>340.4440918</ele>
<time>2012-04-06T13:10:06Z</time>
</trkpt>
<trkpt lat="50.2306973" lon="11.0136311">
<ele>336.5988770</ele>
<time>2012-04-06T13:10:14Z</time>
</trkpt>
<trkpt lat="50.2306210" lon="11.0136583">
<ele>335.1567383</ele>
<time>2012-04-06T13:10:17Z</time>
</trkpt>
<trkpt lat="50.2304464" lon="11.0135898">
<ele>337.0794678</ele>
<time>2012-04-06T13:10:24Z</time>
</trkpt>
<trkpt lat="50.2303242" lon="11.0135309">
<ele>335.6373291</ele>
<time>2012-04-06T13:10:30Z</time>
</trkpt>
<trkpt lat="50.2302216" lon="11.0134971">
<ele>334.1954346</ele>
<time>2012-04-06T13:10:37Z</time>
</trkpt>
<trkpt lat="50.2301942" lon="11.0134955">
<ele>336.1181641</ele>
<time>2012-04-06T13:10:39Z</time>
</trkpt>
<trkpt lat="50.2301436" lon="11.0134703">
<ele>334.1954346</ele>
<time>2012-04-06T13:10:43Z</time>
</trkpt>
<trkpt lat="50.2301084" lon="11.0134467">
<ele>334.1954346</ele>
<time>2012-04-06T13:10:47Z</time>
</trkpt>
<trkpt lat="50.2300027" lon="11.0132992">
<ele>337.0794678</ele>
<time>2012-04-06T13:10:53Z</time>
</trkpt>
<trkpt lat="50.2299620" lon="11.0132479">
<ele>337.5600586</ele>
<time>2012-04-06T13:10:55Z</time>
</trkpt>
<trkpt lat="50.2298639" lon="11.0131967">
<ele>338.5214844</ele>
<time>2012-04-06T13:11:00Z</time>
</trkpt>
<trkpt lat="50.2298145" lon="11.0131516">
<ele>339.0020752</ele>
<time>2012-04-06T13:11:02Z</time>
</trkpt>
<trkpt lat="50.2297642" lon="11.0131157">
<ele>337.5600586</ele>
<time>2012-04-06T13:11:04Z</time>
</trkpt>
<trkpt lat="50.2296022" lon="11.0129435">
<ele>335.1567383</ele>
<time>2012-04-06T13:11:10Z</time>
</trkpt>
<trkpt lat="50.2295741" lon="11.0129133">
<ele>334.1954346</ele>
<time>2012-04-06T13:11:11Z</time>
</trkpt>
<trkpt lat="50.2295110" lon="11.0128615">
<ele>331.7921143</ele>
<time>2012-04-06T13:11:14Z</time>
</trkpt>
<trkpt lat="50.2294352" lon="11.0128039">
<ele>326.0241699</ele>
<time>2012-04-06T13:11:19Z</time>
</trkpt>
<trkpt lat="50.2293468" lon="11.0126917">
<ele>322.6596680</ele>
<time>2012-04-06T13:11:24Z</time>
</trkpt>
<trkpt lat="50.2292629" lon="11.0125251">
<ele>320.7370605</ele>
<time>2012-04-06T13:11:30Z</time>
</trkpt>
<trkpt lat="50.2291099" lon="11.0123294">
<ele>317.8530273</ele>
<time>2012-04-06T13:11:37Z</time>
</trkpt>
<trkpt lat="50.2289925" lon="11.0121839">
<ele>320.7370605</ele>
<time>2012-04-06T13:11:42Z</time>
</trkpt>
<trkpt lat="50.2288610" lon="11.0120099">
<ele>327.9467773</ele>
<time>2012-04-06T13:11:47Z</time>
</trkpt>
<trkpt lat="50.2288293" lon="11.0119757">
<ele>330.8309326</ele>
<time>2012-04-06T13:11:49Z</time>
</trkpt>
<trkpt lat="50.2287791" lon="11.0119369">
<ele>332.2728271</ele>
<time>2012-04-06T13:11:51Z</time>
</trkpt>
<trkpt lat="50.2286496" lon="11.0118764">
<ele>329.3889160</ele>
<time>2012-04-06T13:11:57Z</time>
</trkpt>
<trkpt lat="50.2285014" lon="11.0118327">
<ele>326.5048828</ele>
<time>2012-04-06T13:12:03Z</time>
</trkpt>
<trkpt lat="50.2283922" lon="11.0118673">
<ele>324.1015625</ele>
<time>2012-04-06T13:12:08Z</time>
</trkpt>
<trkpt lat="50.2283686" lon="11.0118743">
<ele>323.1403809</ele>
<time>2012-04-06T13:12:09Z</time>
</trkpt>
<trkpt lat="50.2282594" lon="11.0119223">
<ele>320.2563477</ele>
<time>2012-04-06T13:12:14Z</time>
</trkpt>
<trkpt lat="50.2281821" lon="11.0119251">
<ele>318.3336182</ele>
<time>2012-04-06T13:12:17Z</time>
</trkpt>
<trkpt lat="50.2280679" lon="11.0120109">
<ele>316.4110107</ele>
<time>2012-04-06T13:12:22Z</time>
</trkpt>
<trkpt lat="50.2279677" lon="11.0121176">
<ele>311.6044922</ele>
<time>2012-04-06T13:12:27Z</time>
</trkpt>
<trkpt lat="50.2278314" lon="11.0122372">
<ele>308.7204590</ele>
<time>2012-04-06T13:12:32Z</time>
</trkpt>
<trkpt lat="50.2277581" lon="11.0123239">
<ele>308.2398682</ele>
<time>2012-04-06T13:12:35Z</time>
</trkpt>
<trkpt lat="50.2276173" lon="11.0124084">
<ele>306.3172607</ele>
<time>2012-04-06T13:12:40Z</time>
</trkpt>
<trkpt lat="50.2274916" lon="11.0124850">
<ele>305.3559570</ele>
<time>2012-04-06T13:12:44Z</time>
</trkpt>
<trkpt lat="50.2274503" lon="11.0124869">
<ele>305.3559570</ele>
<time>2012-04-06T13:12:45Z</time>
</trkpt>
<trkpt lat="50.2273033" lon="11.0126249">
<ele>304.3946533</ele>
<time>2012-04-06T13:12:51Z</time>
</trkpt>
<trkpt lat="50.2272378" lon="11.0127035">
<ele>302.9525146</ele>
<time>2012-04-06T13:12:54Z</time>
</trkpt>
<trkpt lat="50.2270489" lon="11.0128395">
<ele>301.9913330</ele>
<time>2012-04-06T13:13:01Z</time>
</trkpt>
<trkpt lat="50.2269325" lon="11.0129331">
<ele>300.5493164</ele>
<time>2012-04-06T13:13:05Z</time>
</trkpt>
<trkpt lat="50.2268650" lon="11.0130112">
<ele>298.6267090</ele>
<time>2012-04-06T13:13:08Z</time>
</trkpt>
<trkpt lat="50.2267545" lon="11.0131688">
<ele>296.2235107</ele>
<time>2012-04-06T13:13:13Z</time>
</trkpt>
<trkpt lat="50.2266646" lon="11.0132871">
<ele>293.8200684</ele>
<time>2012-04-06T13:13:17Z</time>
</trkpt>
<trkpt lat="50.2265656" lon="11.0134637">
<ele>292.3781738</ele>
<time>2012-04-06T13:13:22Z</time>
</trkpt>
<trkpt lat="50.2265450" lon="11.0134956">
<ele>291.8974609</ele>
<time>2012-04-06T13:13:23Z</time>
</trkpt>
<trkpt lat="50.2263855" lon="11.0137178">
<ele>289.9748535</ele>
<time>2012-04-06T13:13:30Z</time>
</trkpt>
<trkpt lat="50.2262909" lon="11.0138450">
<ele>289.9748535</ele>
<time>2012-04-06T13:13:34Z</time>
</trkpt>
<trkpt lat="50.2261993" lon="11.0139830">
<ele>289.9748535</ele>
<time>2012-04-06T13:13:38Z</time>
</trkpt>
<trkpt lat="50.2260751" lon="11.0141470">
<ele>289.0135498</ele>
<time>2012-04-06T13:13:43Z</time>
</trkpt>
<trkpt lat="50.2259707" lon="11.0142731">
<ele>288.5329590</ele>
<time>2012-04-06T13:13:47Z</time>
</trkpt>
<trkpt lat="50.2258797" lon="11.0143185">
<ele>288.0522461</ele>
<time>2012-04-06T13:13:50Z</time>
</trkpt>
<trkpt lat="50.2259089" lon="11.0144299">
<ele>288.5329590</ele>
<time>2012-04-06T13:13:53Z</time>
</trkpt>
<trkpt lat="50.2259360" lon="11.0144576">
<ele>288.5329590</ele>
<time>2012-04-06T13:13:54Z</time>
</trkpt>
<trkpt lat="50.2260931" lon="11.0146978">
<ele>288.5329590</ele>
<time>2012-04-06T13:14:01Z</time>
</trkpt>
<trkpt lat="50.2261346" lon="11.0147641">
<ele>289.0135498</ele>
<time>2012-04-06T13:14:03Z</time>
</trkpt>
<trkpt lat="50.2261726" lon="11.0149558">
<ele>289.9748535</ele>
<time>2012-04-06T13:14:08Z</time>
</trkpt>
<trkpt lat="50.2262469" lon="11.0151452">
<ele>292.3781738</ele>
<time>2012-04-06T13:14:13Z</time>
</trkpt>
<trkpt lat="50.2263126" lon="11.0153006">
<ele>292.3781738</ele>
<time>2012-04-06T13:14:17Z</time>
</trkpt>
<trkpt lat="50.2263385" lon="11.0153742">
<ele>292.3781738</ele>
<time>2012-04-06T13:14:19Z</time>
</trkpt>
<trkpt lat="50.2263561" lon="11.0155546">
<ele>296.2235107</ele>
<time>2012-04-06T13:14:24Z</time>
</trkpt>
</trkseg>
</trk>
</gpx>
